Observation data for Lomax on 02/22/2019      Previous  Date  Next       Current Mesonet Observations  Soil Data  Daily Summary Page  Observations in Plain Language
KLO1 220600Z 11006KT 04/01 A2987 RMK A01 T00420005  RH  077%=      5-min Rain = 0
KLO1 220601Z 11007KT 04/00 A2986 RMK A01 T00410004  RH  077%=      5-min Rain = 0
KLO1 220602Z 11007KT 04/01 A2986 RMK A01 T00410005  RH  077%=      5-min Rain = 0
KLO1 220603Z 11007KT 04/01 A2987 RMK A01 T00410005  RH  077%=      5-min Rain = 0
KLO1 220604Z 11007KT 04/01 A2987 RMK A01 T00410005  RH  077%=      5-min Rain = 0
KLO1 220605Z 11007KT 04/01 A2987 RMK A01 T00410005  RH  077%=      5-min Rain = 0
KLO1 220606Z 12007KT 04/00 A2987 RMK A01 T00400004  RH  077%=      5-min Rain = 0
KLO1 220607Z 12007KT 04/00 A2987 RMK A01 T00400004  RH  078%=      5-min Rain = 0
KLO1 220608Z 12007KT 04/00 A2987 RMK A01 T00400004  RH  078%=      5-min Rain = 0
KLO1 220609Z 13007KT 04/00 A2987 RMK A01 T00400004  RH  078%=      5-min Rain = 0
KLO1 220610Z 12008KT 04/01 A2987 RMK A01 T00400006  RH  078%=      5-min Rain = 0
KLO1 220611Z 13008KT 04/01 A2987 RMK A01 T00410007  RH  078%=      5-min Rain = 0
KLO1 220612Z 13009KT 04/01 A2987 RMK A01 T00410007  RH  078%=      5-min Rain = 0
KLO1 220613Z 13009KT 04/01 A2987 RMK A01 T00430011  RH  079%=      5-min Rain = 0
KLO1 220614Z 13008KT 05/01 A2987 RMK A01 T00470014  RH  079%=      5-min Rain = 0
KLO1 220615Z 13008KT 05/01 A2987 RMK A01 T00480013  RH  078%=      5-min Rain = 0
KLO1 220616Z 13011KT 05/01 A2987 RMK A01 T00490014  RH  078%=      5-min Rain = 0
KLO1 220617Z 13010KT 05/02 A2987 RMK A01 T00530018  RH  078%=      5-min Rain = 0
KLO1 220618Z 13009KT 06/02 A2987 RMK A01 T00550017  RH  077%=      5-min Rain = 0
KLO1 220619Z 12008KT 06/02 A2987 RMK A01 T00550017  RH  076%=      5-min Rain = 0
KLO1 220620Z 13008KT 06/02 A2988 RMK A01 T00550016  RH  076%=      5-min Rain = 0
KLO1 220621Z 13009KT 06/02 A2987 RMK A01 T00550016  RH  076%=      5-min Rain = 0
KLO1 220622Z 13010KT 06/02 A2988 RMK A01 T00560018  RH  076%=      5-min Rain = 0
KLO1 220623Z 12012KT 06/02 A2987 RMK A01 T00570019  RH  076%=      5-min Rain = 0
KLO1 220624Z 12009KT 06/02 A2987 RMK A01 T00600021  RH  076%=      5-min Rain = 0
KLO1 220625Z 12009KT 06/02 A2987 RMK A01 T00600019  RH  075%=      5-min Rain = 0
KLO1 220626Z 12010KT 06/02 A2987 RMK A01 T00600020  RH  075%=      5-min Rain = 0
KLO1 220627Z 11010KT 06/02 A2987 RMK A01 T00600020  RH  075%=      5-min Rain = 0
KLO1 220628Z 11009KT 06/02 A2987 RMK A01 T00610020  RH  075%=      5-min Rain = 0
KLO1 220629Z 11009KT 06/02 A2987 RMK A01 T00610020  RH  075%=      5-min Rain = 0
KLO1 220630Z 11008KT 06/02 A2987 RMK A01 T00610020  RH  075%=      5-min Rain = 0
KLO1 220631Z 11009KT 06/02 A2987 RMK A01 T00600020  RH  075%=      5-min Rain = 0
KLO1 220632Z 11008KT 06/02 A2987 RMK A01 T00600020  RH  076%=      5-min Rain = 0
KLO1 220633Z 11008KT 06/02 A2987 RMK A01 T00600020  RH  076%=      5-min Rain = 0
KLO1 220634Z 11009KT 06/02 A2987 RMK A01 T00590020  RH  076%=      5-min Rain = 0
KLO1 220635Z 11008KT 06/02 A2987 RMK A01 T00600020  RH  076%=      5-min Rain = 0
KLO1 220636Z 12008KT 06/02 A2987 RMK A01 T00590020  RH  076%=      5-min Rain = 0
KLO1 220637Z 12009KT 06/02 A2987 RMK A01 T00590020  RH  076%=      5-min Rain = 0
KLO1 220638Z 12009KT 06/02 A2987 RMK A01 T00590021  RH  076%=      5-min Rain = 0
KLO1 220639Z 12011KT 06/02 A2987 RMK A01 T00590021  RH  076%=      5-min Rain = 0
KLO1 220640Z 12012KT 06/02 A2987 RMK A01 T00600022  RH  076%=      5-min Rain = 0
KLO1 220641Z 13011KT 06/02 A2987 RMK A01 T00610023  RH  076%=      5-min Rain = 0
KLO1 220642Z 13011KT 06/02 A2987 RMK A01 T00620023  RH  076%=      5-min Rain = 0
KLO1 220643Z 12011KT 06/02 A2986 RMK A01 T00620022  RH  076%=      5-min Rain = 0
KLO1 220644Z 12010KT 06/02 A2986 RMK A01 T00620023  RH  076%=      5-min Rain = 0
KLO1 220645Z 12011KT 06/02 A2986 RMK A01 T00620022  RH  076%=      5-min Rain = 0
KLO1 220646Z 12010KT 06/02 A2986 RMK A01 T00620023  RH  076%=      5-min Rain = 0
KLO1 220647Z 12010KT 06/02 A2986 RMK A01 T00620023  RH  076%=      5-min Rain = 0
KLO1 220648Z 12010KT 06/02 A2986 RMK A01 T00620023  RH  076%=      5-min Rain = 0
KLO1 220649Z 12010KT 06/02 A2986 RMK A01 T00620023  RH  076%=      5-min Rain = 0
KLO1 220650Z 12009KT 06/02 A2986 RMK A01 T00620023  RH  076%=      5-min Rain = 0
KLO1 220651Z 12010KT 06/02 A2986 RMK A01 T00620023  RH  076%=      5-min Rain = 0
KLO1 220652Z 12010KT 06/02 A2986 RMK A01 T00620023  RH  076%=      5-min Rain = 0
KLO1 220653Z 12011KT 06/02 A2986 RMK A01 T00620024  RH  076%=      5-min Rain = 0
KLO1 220654Z 13014KT 06/03 A2986 RMK A01 T00630025  RH  076%=      5-min Rain = 0
KLO1 220655Z 12011KT 07/03 A2986 RMK A01 T00650026  RH  076%=      5-min Rain = 0
KLO1 220656Z 12012KT 07/03 A2986 RMK A01 T00650025  RH  075%=      5-min Rain = 0
KLO1 220657Z 12010KT 07/03 A2986 RMK A01 T00650025  RH  076%=      5-min Rain = 0
KLO1 220658Z 12011KT 06/02 A2986 RMK A01 T00640024  RH  076%=      5-min Rain = 0
KLO1 220659Z 12012KT 06/02 A2986 RMK A01 T00640024  RH  076%=      5-min Rain = 0
KLO1 220700Z 12012KT 06/03 A2986 RMK A01 T00640025  RH  076%=      5-min Rain = 0
KLO1 220701Z 12010KT 07/03 A2986 RMK A01 T00650026  RH  076%=      5-min Rain = 0
KLO1 220702Z 12011KT 07/03 A2986 RMK A01 T00650025  RH  076%=      5-min Rain = 0
KLO1 220703Z 12011KT 06/03 A2986 RMK A01 T00640025  RH  076%=      5-min Rain = 0
KLO1 220704Z 12012KT 06/03 A2985 RMK A01 T00640025  RH  076%=      5-min Rain = 0
KLO1 220705Z 12010KT 06/03 A2985 RMK A01 T00640026  RH  076%=      5-min Rain = 0
KLO1 220706Z 12011KT 06/03 A2985 RMK A01 T00640025  RH  076%=      5-min Rain = 0
KLO1 220707Z 12009KT 06/03 A2985 RMK A01 T00640025  RH  076%=      5-min Rain = 0
KLO1 220708Z 12012KT 06/03 A2985 RMK A01 T00630025  RH  076%=      5-min Rain = 0
KLO1 220709Z 11011KT 06/03 A2985 RMK A01 T00630025  RH  077%=      5-min Rain = 0
KLO1 220710Z 11011KT 06/03 A2985 RMK A01 T00630026  RH  077%=      5-min Rain = 0
KLO1 220711Z 11010KT 06/03 A2985 RMK A01 T00630026  RH  077%=      5-min Rain = 0
KLO1 220712Z 11010KT 06/03 A2985 RMK A01 T00630026  RH  077%=      5-min Rain = 0
KLO1 220713Z 11010KT 06/03 A2985 RMK A01 T00630026  RH  077%=      5-min Rain = 0
KLO1 220714Z 11009KT 06/03 A2985 RMK A01 T00630025  RH  077%=      5-min Rain = 0
KLO1 220715Z 11009KT 06/03 A2985 RMK A01 T00620025  RH  077%=      5-min Rain = 0
KLO1 220716Z 11010KT 06/03 A2985 RMK A01 T00630026  RH  078%=      5-min Rain = 0
KLO1 220717Z 11009KT 06/03 A2985 RMK A01 T00620026  RH  078%=      5-min Rain = 0
KLO1 220718Z 11009KT 06/03 A2985 RMK A01 T00610025  RH  078%=      5-min Rain = 0
KLO1 220719Z 12010KT 06/03 A2985 RMK A01 T00600025  RH  078%=      5-min Rain = 0
KLO1 220720Z 11008KT 06/03 A2985 RMK A01 T00600025  RH  078%=      5-min Rain = 0
KLO1 220721Z 11009KT 06/03 A2985 RMK A01 T00600025  RH  078%=      5-min Rain = 0
KLO1 220722Z 11008KT 06/03 A2985 RMK A01 T00600026  RH  079%=      5-min Rain = 0
KLO1 220723Z 11008KT 06/03 A2985 RMK A01 T00600026  RH  079%=      5-min Rain = 0
KLO1 220724Z 12009KT 06/03 A2985 RMK A01 T00590026  RH  079%=      5-min Rain = 0
KLO1 220725Z 12010KT 06/03 A2985 RMK A01 T00590026  RH  079%=      5-min Rain = 0
KLO1 220726Z 12009KT 06/03 A2985 RMK A01 T00600027  RH  079%=      5-min Rain = 0
KLO1 220727Z 11008KT 06/03 A2985 RMK A01 T00600026  RH  079%=      5-min Rain = 0
KLO1 220728Z 12008KT 06/03 A2985 RMK A01 T00600026  RH  079%=      5-min Rain = 0
KLO1 220729Z 11009KT 06/03 A2985 RMK A01 T00590027  RH  079%=      5-min Rain = 0
KLO1 220730Z 11008KT 06/03 A2985 RMK A01 T00590027  RH  080%=      5-min Rain = 0
KLO1 220731Z 11008KT 06/03 A2985 RMK A01 T00590027  RH  080%=      5-min Rain = 0
KLO1 220732Z 11008KT 06/03 A2985 RMK A01 T00590027  RH  080%=      5-min Rain = 0
KLO1 220733Z 11008KT 06/03 A2985 RMK A01 T00590027  RH  080%=      5-min Rain = 0
KLO1 220734Z 12009KT 06/03 A2985 RMK A01 T00590027  RH  080%=      5-min Rain = 0
KLO1 220735Z 11009KT 06/03 A2985 RMK A01 T00590028  RH  080%=      5-min Rain = 0
KLO1 220736Z 11008KT 06/03 A2985 RMK A01 T00590028  RH  080%=      5-min Rain = 0
KLO1 220737Z 11008KT 06/03 A2985 RMK A01 T00590028  RH  080%=      5-min Rain = 0
KLO1 220738Z 11006KT 06/03 A2985 RMK A01 T00580027  RH  080%=      5-min Rain = 0
KLO1 220739Z 12007KT 06/03 A2985 RMK A01 T00570026  RH  080%=      5-min Rain = 0
KLO1 220740Z 11007KT 06/03 A2985 RMK A01 T00570027  RH  081%=      5-min Rain = 0
KLO1 220741Z 11007KT 06/03 A2985 RMK A01 T00570027  RH  081%=      5-min Rain = 0
KLO1 220742Z 12007KT 06/03 A2985 RMK A01 T00570026  RH  081%=      5-min Rain = 0
KLO1 220743Z 11006KT 06/03 A2985 RMK A01 T00560026  RH  081%=      5-min Rain = 0
KLO1 220744Z 11006KT 06/03 A2985 RMK A01 T00560026  RH  081%=      5-min Rain = 0
KLO1 220745Z 11006KT 06/03 A2985 RMK A01 T00550026  RH  081%=      5-min Rain = 0
KLO1 220746Z 11006KT 06/03 A2985 RMK A01 T00550026  RH  082%=      5-min Rain = 0
KLO1 220747Z 12007KT 06/03 A2985 RMK A01 T00550027  RH  082%=      5-min Rain = 0
KLO1 220748Z 11006KT 06/03 A2985 RMK A01 T00560028  RH  082%=      5-min Rain = 0
KLO1 220749Z 11006KT 06/03 A2985 RMK A01 T00560028  RH  082%=      5-min Rain = 0
KLO1 220750Z 12006KT 06/03 A2985 RMK A01 T00560027  RH  082%=      5-min Rain = 0
KLO1 220751Z 12006KT 06/03 A2985 RMK A01 T00560027  RH  082%=      5-min Rain = 0
KLO1 220752Z 12005KT 06/03 A2985 RMK A01 T00550027  RH  082%=      5-min Rain = 0
KLO1 220753Z 12005KT 06/03 A2985 RMK A01 T00550027  RH  082%=      5-min Rain = 0
KLO1 220754Z 12006KT 06/03 A2985 RMK A01 T00550027  RH  082%=      5-min Rain = 0
KLO1 220755Z 12006KT 06/03 A2985 RMK A01 T00550027  RH  082%=      5-min Rain = 0
KLO1 220756Z 11007KT 06/03 A2985 RMK A01 T00550027  RH  082%=      5-min Rain = 0
KLO1 220757Z 12006KT 06/03 A2985 RMK A01 T00550028  RH  083%=      5-min Rain = 0
KLO1 220758Z 12007KT 06/03 A2985 RMK A01 T00550029  RH  083%=      5-min Rain = 0
KLO1 220759Z 12006KT 06/03 A2985 RMK A01 T00560029  RH  083%=      5-min Rain = 0
KLO1 220800Z 12006KT 06/03 A2985 RMK A01 T00560029  RH  083%=      5-min Rain = 0
KLO1 220801Z 12006KT 06/03 A2985 RMK A01 T00560028  RH  082%=      5-min Rain = 0
KLO1 220802Z 12005KT 06/03 A2985 RMK A01 T00560028  RH  082%=      5-min Rain = 0
KLO1 220803Z 12006KT 06/03 A2985 RMK A01 T00550028  RH  082%=      5-min Rain = 0
KLO1 220804Z 12006KT 06/03 A2985 RMK A01 T00550028  RH  083%=      5-min Rain = 0
KLO1 220805Z 11005KT 06/03 A2985 RMK A01 T00550028  RH  083%=      5-min Rain = 0
KLO1 220806Z 11005KT 05/03 A2985 RMK A01 T00540028  RH  083%=      5-min Rain = 0
KLO1 220807Z 12006KT 05/03 A2985 RMK A01 T00540027  RH  083%=      5-min Rain = 0
KLO1 220808Z 11007KT 05/03 A2985 RMK A01 T00530027  RH  083%=      5-min Rain = 0
KLO1 220809Z 11007KT 05/03 A2985 RMK A01 T00530027  RH  083%=      5-min Rain = 0
KLO1 220810Z 12006KT 05/03 A2985 RMK A01 T00530027  RH  083%=      5-min Rain = 0
KLO1 220811Z 12007KT 05/03 A2985 RMK A01 T00530027  RH  083%=      5-min Rain = 0
KLO1 220812Z 12006KT 05/03 A2985 RMK A01 T00530028  RH  084%=      5-min Rain = 0
KLO1 220813Z 12006KT 05/03 A2985 RMK A01 T00530028  RH  084%=      5-min Rain = 0
KLO1 220814Z 12006KT 05/03 A2985 RMK A01 T00530028  RH  084%=      5-min Rain = 0
KLO1 220815Z 12007KT 05/03 A2985 RMK A01 T00530028  RH  084%=      5-min Rain = 0
KLO1 220816Z 12006KT 05/03 A2985 RMK A01 T00530028  RH  084%=      5-min Rain = 0
KLO1 220817Z 12006KT 05/03 A2985 RMK A01 T00530028  RH  084%=      5-min Rain = 0
KLO1 220818Z 12006KT 05/03 A2985 RMK A01 T00530028  RH  084%=      5-min Rain = 0
KLO1 220819Z 12005KT 05/03 A2985 RMK A01 T00540029  RH  084%=      5-min Rain = 0
KLO1 220820Z 12006KT 05/03 A2985 RMK A01 T00530028  RH  084%=      5-min Rain = 0
KLO1 220821Z 12006KT 05/03 A2985 RMK A01 T00530028  RH  084%=      5-min Rain = 0
KLO1 220822Z 13006KT 05/03 A2985 RMK A01 T00530028  RH  084%=      5-min Rain = 0
KLO1 220823Z 12006KT 05/03 A2985 RMK A01 T00530028  RH  084%=      5-min Rain = 0
KLO1 220824Z 12007KT 05/03 A2985 RMK A01 T00530028  RH  084%=      5-min Rain = 0
KLO1 220825Z 12006KT 05/03 A2985 RMK A01 T00530029  RH  084%=      5-min Rain = 0
KLO1 220826Z 12007KT 05/03 A2985 RMK A01 T00530029  RH  084%=      5-min Rain = 0
KLO1 220827Z 12007KT 05/03 A2985 RMK A01 T00530029  RH  085%=      5-min Rain = 0
KLO1 220828Z 12008KT 05/03 A2985 RMK A01 T00540030  RH  085%=      5-min Rain = 0
KLO1 220829Z 12008KT 06/03 A2985 RMK A01 T00550030  RH  084%=      5-min Rain = 0
KLO1 220830Z 12007KT 06/03 A2985 RMK A01 T00560031  RH  084%=      5-min Rain = 0
KLO1 220831Z 13006KT 06/03 A2985 RMK A01 T00560030  RH  084%=      5-min Rain = 0
KLO1 220832Z 13007KT 06/03 A2985 RMK A01 T00550029  RH  084%=      5-min Rain = 0
KLO1 220833Z 13008KT 06/03 A2985 RMK A01 T00550029  RH  084%=      5-min Rain = 0
KLO1 220834Z 13007KT 05/03 A2985 RMK A01 T00540029  RH  084%=      5-min Rain = 0
KLO1 220835Z 14007KT 05/03 A2985 RMK A01 T00540029  RH  084%=      5-min Rain = 0
KLO1 220836Z 14007KT 05/03 A2985 RMK A01 T00540029  RH  084%=      5-min Rain = 0
KLO1 220837Z 14006KT 05/03 A2985 RMK A01 T00530028  RH  084%=      5-min Rain = 0
KLO1 220838Z 14006KT 05/03 A2985 RMK A01 T00530028  RH  084%=      5-min Rain = 0
KLO1 220839Z 14006KT 05/03 A2985 RMK A01 T00530029  RH  084%=      5-min Rain = 0
KLO1 220840Z 14005KT 05/03 A2985 RMK A01 T00530029  RH  084%=      5-min Rain = 0
KLO1 220841Z 15005KT 05/03 A2985 RMK A01 T00530028  RH  084%=      5-min Rain = 0
KLO1 220842Z 14004KT 05/03 A2985 RMK A01 T00530028  RH  084%=      5-min Rain = 0
KLO1 220843Z 14005KT 05/03 A2985 RMK A01 T00520028  RH  084%=      5-min Rain = 0
KLO1 220844Z 14005KT 05/03 A2985 RMK A01 T00520028  RH  084%=      5-min Rain = 0
KLO1 220845Z 14004KT 05/03 A2985 RMK A01 T00520028  RH  085%=      5-min Rain = 0
KLO1 220846Z 14003KT 05/03 A2985 RMK A01 T00510028  RH  085%=      5-min Rain = 0
KLO1 220847Z 15002KT 05/03 A2985 RMK A01 T00510027  RH  084%=      5-min Rain = 0
KLO1 220848Z 15002KT 05/03 A2985 RMK A01 T00500026  RH  084%=      5-min Rain = 0
KLO1 220849Z 15002KT 05/03 A2985 RMK A01 T00500026  RH  085%=      5-min Rain = 0
KLO1 220850Z 15001KT 05/03 A2985 RMK A01 T00500026  RH  085%=      5-min Rain = 0
KLO1 220851Z 13001KT 05/03 A2985 RMK A01 T00500026  RH  085%=      5-min Rain = 0
KLO1 220852Z 14001KT 05/03 A2986 RMK A01 T00490026  RH  085%=      5-min Rain = 0
KLO1 220853Z 18000KT 05/03 A2986 RMK A01 T00490025  RH  085%=      5-min Rain = 0
KLO1 220854Z 00000KT 05/03 A2986 RMK A01 T00490025  RH  085%=      5-min Rain = 0
KLO1 220855Z 00000KT 05/02 A2986 RMK A01 T00480024  RH  085%=      5-min Rain = 0
KLO1 220856Z 00000KT 05/03 A2986 RMK A01 T00480025  RH  085%=      5-min Rain = 0
KLO1 220857Z 13000KT 05/03 A2986 RMK A01 T00470025  RH  086%=      5-min Rain = 0
KLO1 220858Z 00000KT 05/03 A2986 RMK A01 T00470026  RH  086%=      5-min Rain = 0
KLO1 220859Z 07001KT 05/03 A2986 RMK A01 T00470025  RH  086%=      5-min Rain = 0
KLO1 220900Z 07001KT 05/03 A2986 RMK A01 T00470025  RH  086%=      5-min Rain = 0
KLO1 220901Z 08002KT 05/03 A2986 RMK A01 T00470025  RH  086%=      5-min Rain = 0
KLO1 220902Z 06002KT 05/03 A2985 RMK A01 T00470025  RH  086%=      5-min Rain = 0
KLO1 220903Z 09002KT 05/03 A2985 RMK A01 T00460025  RH  086%=      5-min Rain = 0
KLO1 220904Z 08002KT 05/03 A2985 RMK A01 T00460025  RH  086%=      5-min Rain = 0
KLO1 220905Z 08002KT 05/02 A2985 RMK A01 T00460024  RH  086%=      5-min Rain = 0
KLO1 220906Z 09002KT 05/02 A2985 RMK A01 T00450024  RH  086%=      5-min Rain = 0
KLO1 220907Z 09002KT 05/02 A2985 RMK A01 T00450023  RH  086%=      5-min Rain = 0
KLO1 220908Z 09002KT 04/02 A2985 RMK A01 T00440022  RH  086%=      5-min Rain = 0
KLO1 220909Z 10001KT 04/02 A2985 RMK A01 T00430021  RH  086%=      5-min Rain = 0
KLO1 220910Z 09001KT 04/02 A2985 RMK A01 T00420020  RH  086%=      5-min Rain = 0
KLO1 220911Z 08000KT 04/02 A2986 RMK A01 T00410020  RH  086%=      5-min Rain = 0
KLO1 220912Z 09000KT 04/02 A2986 RMK A01 T00410021  RH  087%=      5-min Rain = 0
KLO1 220913Z 09000KT 04/02 A2986 RMK A01 T00410022  RH  087%=      5-min Rain = 0
KLO1 220914Z 09000KT 04/02 A2986 RMK A01 T00410022  RH  087%=      5-min Rain = 0
KLO1 220915Z 10001KT 04/02 A2986 RMK A01 T00410022  RH  088%=      5-min Rain = 0
KLO1 220916Z 10001KT 04/02 A2986 RMK A01 T00410023  RH  088%=      5-min Rain = 0
KLO1 220917Z 10001KT 04/02 A2986 RMK A01 T00420024  RH  088%=      5-min Rain = 0
KLO1 220918Z 11001KT 04/02 A2986 RMK A01 T00420024  RH  088%=      5-min Rain = 0
KLO1 220919Z 10001KT 04/02 A2986 RMK A01 T00420024  RH  088%=      5-min Rain = 0
KLO1 220920Z 10001KT 04/03 A2986 RMK A01 T00430025  RH  088%=      5-min Rain = 0
KLO1 220921Z 11002KT 04/03 A2986 RMK A01 T00420025  RH  088%=      5-min Rain = 0
KLO1 220922Z 10002KT 04/03 A2986 RMK A01 T00430025  RH  088%=      5-min Rain = 0
KLO1 220923Z 10003KT 04/03 A2986 RMK A01 T00430025  RH  088%=      5-min Rain = 0
KLO1 220924Z 10004KT 04/03 A2986 RMK A01 T00430025  RH  088%=      5-min Rain = 0
KLO1 220925Z 10004KT 04/03 A2986 RMK A01 T00430025  RH  088%=      5-min Rain = 0
KLO1 220926Z 11004KT 04/02 A2986 RMK A01 T00420022  RH  087%=      5-min Rain = 0
KLO1 220927Z 11003KT 04/02 A2986 RMK A01 T00400020  RH  087%=      5-min Rain = 0
KLO1 220928Z 11003KT 04/02 A2986 RMK A01 T00400021  RH  087%=      5-min Rain = 0
KLO1 220929Z 11002KT 04/02 A2986 RMK A01 T00390021  RH  088%=      5-min Rain = 0
KLO1 220930Z 11003KT 04/02 A2986 RMK A01 T00390021  RH  088%=      5-min Rain = 0
KLO1 220931Z 10003KT 04/02 A2986 RMK A01 T00390021  RH  088%=      5-min Rain = 0
KLO1 220932Z 09002KT 04/02 A2986 RMK A01 T00390022  RH  088%=      5-min Rain = 0
KLO1 220933Z 08002KT 04/02 A2986 RMK A01 T00390022  RH  088%=      5-min Rain = 0
KLO1 220934Z 08002KT 04/02 A2986 RMK A01 T00390022  RH  089%=      5-min Rain = 0
KLO1 220935Z 08002KT 04/02 A2986 RMK A01 T00390022  RH  088%=      5-min Rain = 0
KLO1 220936Z 07002KT 04/02 A2986 RMK A01 T00380019  RH  088%=      5-min Rain = 0
KLO1 220937Z 06001KT 04/02 A2986 RMK A01 T00370017  RH  087%=      5-min Rain = 0
KLO1 220938Z 06002KT 04/02 A2987 RMK A01 T00350015  RH  087%=      5-min Rain = 0
KLO1 220939Z 04001KT 03/02 A2987 RMK A01 T00340016  RH  088%=      5-min Rain = 0
KLO1 220940Z 03001KT 03/02 A2987 RMK A01 T00340018  RH  089%=      5-min Rain = 0
KLO1 220941Z 03000KT 03/02 A2987 RMK A01 T00340019  RH  090%=      5-min Rain = 0
KLO1 220942Z 00000KT 04/02 A2987 RMK A01 T00360021  RH  090%=      5-min Rain = 0
KLO1 220943Z 00000KT 04/02 A2987 RMK A01 T00360022  RH  090%=      5-min Rain = 0
KLO1 220944Z 00000KT 04/02 A2987 RMK A01 T00370022  RH  090%=      5-min Rain = 0
KLO1 220945Z 00000KT 04/02 A2987 RMK A01 T00360019  RH  089%=      5-min Rain = 0
KLO1 220946Z 00000KT 03/02 A2987 RMK A01 T00340015  RH  088%=      5-min Rain = 0
KLO1 220947Z 00000KT 03/02 A2987 RMK A01 T00330016  RH  089%=      5-min Rain = 0
KLO1 220948Z 00000KT 03/02 A2987 RMK A01 T00330016  RH  089%=      5-min Rain = 0
KLO1 220949Z 00000KT 03/02 A2987 RMK A01 T00330018  RH  090%=      5-min Rain = 0
KLO1 220950Z 00000KT 04/02 A2987 RMK A01 T00350020  RH  090%=      5-min Rain = 0
KLO1 220951Z 09000KT 03/02 A2987 RMK A01 T00340019  RH  090%=      5-min Rain = 0
KLO1 220952Z 11000KT 03/02 A2987 RMK A01 T00340020  RH  090%=      5-min Rain = 0
KLO1 220953Z 00000KT 04/02 A2987 RMK A01 T00350020  RH  090%=      5-min Rain = 0
KLO1 220954Z 00000KT 04/02 A2987 RMK A01 T00350020  RH  090%=      5-min Rain = 0
KLO1 220955Z 28001KT 03/02 A2987 RMK A01 T00330017  RH  089%=      5-min Rain = 0
KLO1 220956Z 28002KT 03/02 A2988 RMK A01 T00320015  RH  089%=      5-min Rain = 0
KLO1 220957Z 29001KT 03/02 A2988 RMK A01 T00310015  RH  089%=      5-min Rain = 0
KLO1 220958Z 26001KT 03/01 A2988 RMK A01 T00310014  RH  089%=      5-min Rain = 0
KLO1 220959Z 24001KT 03/01 A2988 RMK A01 T00300014  RH  089%=      5-min Rain = 0
KLO1 221000Z 22001KT 03/01 A2988 RMK A01 T00300014  RH  089%=      5-min Rain = 0
KLO1 221001Z 18002KT 03/01 A2988 RMK A01 T00300014  RH  090%=      5-min Rain = 0
KLO1 221002Z 18002KT 03/02 A2988 RMK A01 T00300015  RH  090%=      5-min Rain = 0
KLO1 221003Z 17002KT 03/02 A2988 RMK A01 T00300016  RH  090%=      5-min Rain = 0
KLO1 221004Z 16003KT 03/02 A2988 RMK A01 T00320019  RH  091%=      5-min Rain = 0
KLO1 221005Z 16002KT 03/02 A2988 RMK A01 T00330020  RH  091%=      5-min Rain = 0
KLO1 221006Z 17001KT 03/02 A2988 RMK A01 T00330020  RH  091%=      5-min Rain = 0
KLO1 221007Z 17001KT 03/02 A2988 RMK A01 T00330019  RH  090%=      5-min Rain = 0
KLO1 221008Z 19001KT 03/02 A2988 RMK A01 T00340019  RH  090%=      5-min Rain = 0
KLO1 221009Z 00000KT 03/02 A2988 RMK A01 T00330019  RH  090%=      5-min Rain = 0
KLO1 221010Z 00000KT 03/02 A2988 RMK A01 T00340019  RH  090%=      5-min Rain = 0
KLO1 221011Z 00000KT 03/02 A2988 RMK A01 T00340020  RH  091%=      5-min Rain = 0
KLO1 221012Z 00000KT 04/02 A2988 RMK A01 T00350021  RH  091%=      5-min Rain = 0
KLO1 221013Z 33001KT 04/02 A2988 RMK A01 T00350021  RH  091%=      5-min Rain = 0
KLO1 221014Z 33002KT 04/02 A2988 RMK A01 T00360022  RH  091%=      5-min Rain = 0
KLO1 221015Z 33004KT 04/02 A2988 RMK A01 T00350020  RH  090%=      5-min Rain = 0
KLO1 221016Z 32005KT 04/02 A2988 RMK A01 T00350020  RH  090%=      5-min Rain = 0
KLO1 221017Z 32006KT 03/02 A2988 RMK A01 T00340019  RH  090%=      5-min Rain = 0
KLO1 221018Z 32006KT 03/02 A2988 RMK A01 T00340019  RH  090%=      5-min Rain = 0
KLO1 221019Z 32006KT 04/02 A2988 RMK A01 T00350020  RH  090%=      5-min Rain = 0
KLO1 221020Z 33005KT 04/02 A2988 RMK A01 T00350020  RH  090%=      5-min Rain = 0
KLO1 221021Z 33005KT 04/02 A2988 RMK A01 T00360022  RH  090%=      5-min Rain = 0
KLO1 221022Z 32005KT 04/02 A2988 RMK A01 T00380023  RH  090%=      5-min Rain = 0
KLO1 221023Z 32005KT 04/02 A2988 RMK A01 T00390024  RH  090%=      5-min Rain = 0
KLO1 221024Z 32006KT 04/02 A2988 RMK A01 T00390024  RH  090%=      5-min Rain = 0
KLO1 221025Z 32005KT 04/02 A2988 RMK A01 T00400024  RH  090%=      5-min Rain = 0
KLO1 221026Z 32004KT 04/03 A2988 RMK A01 T00410025  RH  089%=      5-min Rain = 0
KLO1 221027Z 31003KT 04/03 A2988 RMK A01 T00410025  RH  089%=      5-min Rain = 0
KLO1 221028Z 31002KT 04/03 A2988 RMK A01 T00420025  RH  089%=      5-min Rain = 0
KLO1 221029Z 30002KT 04/03 A2988 RMK A01 T00420025  RH  089%=      5-min Rain = 0
KLO1 221030Z 31001KT 04/03 A2988 RMK A01 T00420025  RH  089%=      5-min Rain = 0
KLO1 221031Z 31000KT 04/03 A2988 RMK A01 T00430025  RH  089%=      5-min Rain = 0
KLO1 221032Z 00000KT 04/03 A2988 RMK A01 T00430025  RH  088%=      5-min Rain = 0
KLO1 221033Z 27000KT 04/03 A2988 RMK A01 T00430026  RH  088%=      5-min Rain = 0
KLO1 221034Z 27000KT 04/03 A2988 RMK A01 T00440026  RH  088%=      5-min Rain = 0
KLO1 221035Z 25000KT 04/03 A2988 RMK A01 T00440025  RH  088%=      5-min Rain = 0
KLO1 221036Z 26001KT 04/03 A2989 RMK A01 T00440025  RH  088%=      5-min Rain = 0
KLO1 221037Z 27002KT 04/03 A2989 RMK A01 T00440026  RH  088%=      5-min Rain = 0
KLO1 221038Z 28002KT 05/03 A2989 RMK A01 T00450026  RH  088%=      5-min Rain = 0
KLO1 221039Z 28002KT 05/03 A2989 RMK A01 T00450027  RH  088%=      5-min Rain = 0
KLO1 221040Z 29001KT 05/03 A2989 RMK A01 T00460027  RH  088%=      5-min Rain = 0
KLO1 221041Z 29000KT 05/03 A2989 RMK A01 T00460027  RH  088%=      5-min Rain = 0
KLO1 221042Z 00000KT 05/03 A2989 RMK A01 T00460028  RH  088%=      5-min Rain = 0
KLO1 221043Z 00000KT 05/03 A2988 RMK A01 T00460028  RH  088%=      5-min Rain = 0
KLO1 221044Z 00000KT 05/03 A2988 RMK A01 T00460028  RH  088%=      5-min Rain = 0
KLO1 221045Z 01001KT 05/03 A2988 RMK A01 T00460027  RH  088%=      5-min Rain = 0
KLO1 221046Z 35002KT 05/03 A2988 RMK A01 T00470028  RH  088%=      5-min Rain = 0
KLO1 221047Z 35002KT 05/03 A2988 RMK A01 T00470029  RH  088%=      5-min Rain = 0
KLO1 221048Z 01002KT 05/03 A2988 RMK A01 T00480030  RH  088%=      5-min Rain = 0
KLO1 221049Z 04002KT 05/03 A2988 RMK A01 T00480030  RH  088%=      5-min Rain = 0
KLO1 221050Z 05003KT 05/03 A2988 RMK A01 T00480029  RH  088%=      5-min Rain = 0
KLO1 221051Z 06002KT 05/03 A2988 RMK A01 T00480029  RH  088%=      5-min Rain = 0
KLO1 221052Z 08002KT 05/03 A2988 RMK A01 T00480030  RH  088%=      5-min Rain = 0
KLO1 221053Z 08003KT 05/03 A2988 RMK A01 T00480030  RH  088%=      5-min Rain = 0
KLO1 221054Z 07003KT 05/03 A2988 RMK A01 T00480030  RH  088%=      5-min Rain = 0
KLO1 221055Z 07003KT 05/03 A2988 RMK A01 T00480030  RH  088%=      5-min Rain = 0
KLO1 221056Z 07002KT 05/03 A2988 RMK A01 T00480030  RH  088%=      5-min Rain = 0
KLO1 221057Z 07002KT 05/03 A2988 RMK A01 T00470030  RH  088%=      5-min Rain = 0
KLO1 221058Z 06002KT 05/03 A2988 RMK A01 T00470030  RH  088%=      5-min Rain = 0
KLO1 221059Z 05002KT 05/03 A2988 RMK A01 T00470030  RH  089%=      5-min Rain = 0
KLO1 221100Z 04001KT 05/03 A2988 RMK A01 T00460029  RH  088%=      5-min Rain = 0
KLO1 221101Z 05001KT 05/03 A2988 RMK A01 T00460028  RH  088%=      5-min Rain = 0
KLO1 221102Z 06002KT 05/03 A2988 RMK A01 T00450028  RH  089%=      5-min Rain = 0
KLO1 221103Z 07002KT 05/03 A2988 RMK A01 T00450028  RH  089%=      5-min Rain = 0
KLO1 221104Z 07003KT 05/03 A2988 RMK A01 T00450028  RH  089%=      5-min Rain = 0
KLO1 221105Z 08002KT 04/03 A2988 RMK A01 T00440028  RH  089%=      5-min Rain = 0
KLO1 221106Z 10001KT 04/03 A2988 RMK A01 T00440028  RH  089%=      5-min Rain = 0
KLO1 221107Z 09000KT 04/03 A2988 RMK A01 T00440028  RH  090%=      5-min Rain = 0
KLO1 221108Z 08001KT 04/03 A2988 RMK A01 T00440029  RH  090%=      5-min Rain = 0
KLO1 221109Z 09002KT 04/03 A2988 RMK A01 T00440029  RH  090%=      5-min Rain = 0
KLO1 221110Z 08002KT 04/03 A2988 RMK A01 T00440029  RH  090%=      5-min Rain = 0
KLO1 221111Z 06002KT 04/03 A2988 RMK A01 T00440029  RH  090%=      5-min Rain = 0
KLO1 221112Z 04001KT 04/03 A2988 RMK A01 T00440030  RH  090%=      5-min Rain = 0
KLO1 221113Z 04002KT 04/03 A2988 RMK A01 T00440030  RH  091%=      5-min Rain = 0
KLO1 221114Z 04002KT 04/03 A2988 RMK A01 T00440031  RH  091%=      5-min Rain = 0
KLO1 221115Z 05002KT 05/03 A2988 RMK A01 T00450031  RH  091%=      5-min Rain = 0
KLO1 221116Z 07002KT 05/03 A2988 RMK A01 T00450031  RH  091%=      5-min Rain = 0
KLO1 221117Z 09002KT 05/03 A2988 RMK A01 T00450031  RH  091%=      5-min Rain = 0
KLO1 221118Z 09003KT 05/03 A2988 RMK A01 T00450032  RH  091%=      5-min Rain = 0
KLO1 221119Z 10003KT 05/03 A2988 RMK A01 T00450032  RH  091%=      5-min Rain = 0
KLO1 221120Z 10004KT 05/03 A2988 RMK A01 T00450032  RH  092%=      5-min Rain = 0
KLO1 221121Z 11004KT 05/03 A2988 RMK A01 T00450033  RH  092%=      5-min Rain = 0
KLO1 221122Z 11004KT 05/03 A2988 RMK A01 T00450033  RH  092%=      5-min Rain = 0
KLO1 221123Z 11004KT 05/03 A2988 RMK A01 T00450033  RH  092%=      5-min Rain = 0
KLO1 221124Z 11004KT 05/03 A2988 RMK A01 T00450033  RH  092%=      5-min Rain = 0
KLO1 221125Z 11004KT 05/03 A2988 RMK A01 T00450034  RH  092%=      5-min Rain = 0
KLO1 221126Z 11004KT 05/03 A2988 RMK A01 T00450034  RH  093%=      5-min Rain = 0
KLO1 221127Z 10004KT 05/03 A2988 RMK A01 T00450034  RH  093%=      5-min Rain = 0
KLO1 221128Z 10004KT 05/03 A2988 RMK A01 T00450034  RH  093%=      5-min Rain = 0
KLO1 221129Z 10004KT 05/04 A2988 RMK A01 T00450035  RH  093%=      5-min Rain = 0
KLO1 221130Z 10003KT 05/04 A2988 RMK A01 T00460035  RH  093%=      5-min Rain = 0
KLO1 221131Z 09003KT 05/04 A2988 RMK A01 T00460036  RH  093%=      5-min Rain = 0
KLO1 221132Z 10003KT 05/04 A2988 RMK A01 T00460037  RH  093%=      5-min Rain = 0
KLO1 221133Z 11004KT 05/04 A2988 RMK A01 T00460037  RH  094%=      5-min Rain = 0
KLO1 221134Z 12005KT 05/04 A2988 RMK A01 T00470038  RH  094%=      5-min Rain = 0
KLO1 221135Z 12007KT 05/04 A2988 RMK A01 T00500042  RH  094%=      5-min Rain = 0
KLO1 221136Z 12007KT 05/05 A2988 RMK A01 T00540046  RH  095%=      5-min Rain = 0
KLO1 221137Z 13006KT 06/05 A2988 RMK A01 T00550048  RH  095%=      5-min Rain = 0
KLO1 221138Z 13006KT 06/05 A2988 RMK A01 T00560049  RH  095%=      5-min Rain = 0
KLO1 221139Z 12006KT 06/05 A2988 RMK A01 T00560049  RH  095%=      5-min Rain = 0
KLO1 221140Z 12007KT 06/05 A2988 RMK A01 T00570049  RH  095%=      5-min Rain = 0
KLO1 221141Z 12006KT 06/05 A2988 RMK A01 T00570049  RH  095%=      5-min Rain = 0
KLO1 221142Z 13007KT 06/05 A2988 RMK A01 T00570049  RH  095%=      5-min Rain = 0
KLO1 221143Z 13006KT 06/05 A2988 RMK A01 T00570049  RH  095%=      5-min Rain = 0
KLO1 221144Z 13006KT 06/05 A2988 RMK A01 T00570050  RH  095%=      5-min Rain = 0
KLO1 221145Z 13007KT 06/05 A2988 RMK A01 T00570050  RH  095%=      5-min Rain = 0
KLO1 221146Z 13008KT 06/05 A2988 RMK A01 T00570050  RH  095%=      5-min Rain = 0
KLO1 221147Z 13008KT 06/05 A2988 RMK A01 T00570050  RH  095%=      5-min Rain = 0
KLO1 221148Z 13009KT 06/05 A2988 RMK A01 T00570050  RH  095%=      5-min Rain = 0
KLO1 221149Z 13009KT 06/05 A2988 RMK A01 T00570050  RH  095%=      5-min Rain = 0
KLO1 221150Z 13008KT 06/05 A2988 RMK A01 T00570050  RH  095%=      5-min Rain = 0
KLO1 221151Z 13008KT 06/05 A2988 RMK A01 T00570050  RH  095%=      5-min Rain = 0
KLO1 221152Z 12007KT 06/05 A2988 RMK A01 T00570050  RH  095%=      5-min Rain = 0
KLO1 221153Z 13007KT 06/05 A2988 RMK A01 T00580050  RH  095%=      5-min Rain = 0
KLO1 221154Z 14008KT 06/05 A2988 RMK A01 T00580051  RH  095%=      5-min Rain = 0
KLO1 221155Z 13006KT 06/05 A2988 RMK A01 T00570051  RH  095%=      5-min Rain = 0
KLO1 221156Z 13007KT 06/05 A2988 RMK A01 T00570051  RH  095%=      5-min Rain = 0
KLO1 221157Z 13006KT 06/05 A2988 RMK A01 T00580051  RH  095%=      5-min Rain = 0
KLO1 221158Z 12006KT 06/05 A2988 RMK A01 T00580051  RH  095%=      5-min Rain = 0
KLO1 221159Z 12006KT 06/05 A2988 RMK A01 T00580051  RH  095%=      5-min Rain = 0
KLO1 221200Z 12006KT 06/05 A2988 RMK A01 T00580051  RH  095%=      5-min Rain = 0
KLO1 221201Z 12006KT 06/05 A2989 RMK A01 T00580052  RH  096%=      5-min Rain = 0
KLO1 221202Z 13006KT 06/05 A2989 RMK A01 T00580052  RH  096%=      5-min Rain = 0
KLO1 221203Z 12007KT 06/05 A2989 RMK A01 T00580051  RH  096%=      5-min Rain = 0
KLO1 221204Z 12007KT 06/05 A2989 RMK A01 T00580052  RH  096%=      5-min Rain = 0
KLO1 221205Z 12007KT 06/05 A2989 RMK A01 T00580052  RH  096%=      5-min Rain = 0
KLO1 221206Z 12006KT 06/05 A2989 RMK A01 T00580052  RH  096%=      5-min Rain = 0
KLO1 221207Z 12006KT 06/05 A2989 RMK A01 T00580052  RH  096%=      5-min Rain = 0
KLO1 221208Z 12007KT 06/05 A2989 RMK A01 T00580052  RH  096%=      5-min Rain = 0
KLO1 221209Z 12006KT 06/05 A2989 RMK A01 T00580052  RH  096%=      5-min Rain = 0
KLO1 221210Z 12005KT 06/05 A2989 RMK A01 T00580052  RH  096%=      5-min Rain = 0
KLO1 221211Z 12006KT 06/05 A2989 RMK A01 T00580052  RH  096%=      5-min Rain = 0
KLO1 221212Z 12006KT 06/05 A2989 RMK A01 T00580052  RH  096%=      5-min Rain = 0
KLO1 221213Z 12005KT 06/05 A2989 RMK A01 T00580052  RH  096%=      5-min Rain = 0
KLO1 221214Z 12005KT 06/05 A2989 RMK A01 T00580052  RH  096%=      5-min Rain = 0
KLO1 221215Z 12006KT 06/05 A2989 RMK A01 T00580052  RH  096%=      5-min Rain = 0
KLO1 221216Z 11005KT 06/05 A2989 RMK A01 T00580052  RH  096%=      5-min Rain = 0
KLO1 221217Z 11005KT 06/05 A2989 RMK A01 T00590053  RH  096%=      5-min Rain = 0
KLO1 221218Z 12006KT 06/05 A2989 RMK A01 T00590053  RH  096%=      5-min Rain = 0
KLO1 221219Z 11006KT 06/05 A2989 RMK A01 T00590053  RH  096%=      5-min Rain = 0
KLO1 221220Z 11005KT 06/05 A2989 RMK A01 T00590053  RH  096%=      5-min Rain = 0
KLO1 221221Z 11005KT 06/05 A2989 RMK A01 T00590053  RH  096%=      5-min Rain = 0
KLO1 221222Z 11006KT 06/05 A2989 RMK A01 T00590053  RH  096%=      5-min Rain = 0
KLO1 221223Z 11005KT 06/05 A2989 RMK A01 T00590053  RH  096%=      5-min Rain = 0
KLO1 221224Z 10005KT 06/05 A299 RMK A01 T00590054  RH  096%=      5-min Rain = 0
KLO1 221225Z 10004KT 06/05 A299 RMK A01 T00590054  RH  096%=      5-min Rain = 0
KLO1 221226Z 11004KT 06/05 A299 RMK A01 T00600054  RH  096%=      5-min Rain = 0
KLO1 221227Z 11005KT 06/05 A299 RMK A01 T00600054  RH  096%=      5-min Rain = 0
KLO1 221228Z 11005KT 06/05 A299 RMK A01 T00600054  RH  096%=      5-min Rain = 0
KLO1 221229Z 11005KT 06/06 A299 RMK A01 T00600055  RH  096%=      5-min Rain = 0
KLO1 221230Z 12005KT 06/06 A299 RMK A01 T00600055  RH  096%=      5-min Rain = 0
KLO1 221231Z 10004KT 06/06 A299 RMK A01 T00600055  RH  096%=      5-min Rain = 0
KLO1 221232Z 11005KT 06/06 A299 RMK A01 T00610055  RH  096%=      5-min Rain = 0
KLO1 221233Z 11004KT 06/06 A299 RMK A01 T00610055  RH  096%=      5-min Rain = 0
KLO1 221234Z 11004KT 06/06 A299 RMK A01 T00610055  RH  096%=      5-min Rain = 0
KLO1 221235Z 11004KT 06/06 A299 RMK A01 T00610056  RH  096%=      5-min Rain = 0
KLO1 221236Z 10004KT 06/06 A299 RMK A01 T00610056  RH  096%=      5-min Rain = 0
KLO1 221237Z 11004KT 06/06 A299 RMK A01 T00620056  RH  096%=      5-min Rain = 0
KLO1 221238Z 10004KT 06/06 A299 RMK A01 T00610056  RH  096%=      5-min Rain = 0
KLO1 221239Z 10004KT 06/06 A299 RMK A01 T00620056  RH  096%=      5-min Rain = 0
KLO1 221240Z 10004KT 06/06 A299 RMK A01 T00620057  RH  096%=      5-min Rain = 0
KLO1 221241Z 09004KT 06/06 A299 RMK A01 T00620057  RH  096%=      5-min Rain = 0
KLO1 221242Z 09004KT 06/06 A299 RMK A01 T00620057  RH  096%=      5-min Rain = 0
KLO1 221243Z 09004KT 06/06 A299 RMK A01 T00630057  RH  096%=      5-min Rain = 0
KLO1 221244Z 09003KT 06/06 A2991 RMK A01 T00630057  RH  096%=      5-min Rain = 0
KLO1 221245Z 09003KT 06/06 A2991 RMK A01 T00630058  RH  096%=      5-min Rain = 0
KLO1 221246Z 09004KT 06/06 A2991 RMK A01 T00630058  RH  096%=      5-min Rain = 0
KLO1 221247Z 09004KT 06/06 A2991 RMK A01 T00630058  RH  096%=      5-min Rain = 0
KLO1 221248Z 09004KT 06/06 A2991 RMK A01 T00640058  RH  096%=      5-min Rain = 0
KLO1 221249Z 09004KT 06/06 A2991 RMK A01 T00630058  RH  096%=      5-min Rain = 0
KLO1 221250Z 09004KT 06/06 A2991 RMK A01 T00640059  RH  096%=      5-min Rain = 0
KLO1 221251Z 10005KT 06/06 A2991 RMK A01 T00640059  RH  096%=      5-min Rain = 0
KLO1 221252Z 10004KT 06/06 A2991 RMK A01 T00640059  RH  096%=      5-min Rain = 0
KLO1 221253Z 10005KT 07/06 A2991 RMK A01 T00650059  RH  097%=      5-min Rain = 0
KLO1 221254Z 10005KT 07/06 A2991 RMK A01 T00650060  RH  097%=      5-min Rain = 0
KLO1 221255Z 10005KT 07/06 A2991 RMK A01 T00650060  RH  097%=      5-min Rain = 0
KLO1 221256Z 10005KT 07/06 A2991 RMK A01 T00650060  RH  097%=      5-min Rain = 0
KLO1 221257Z 10004KT 07/06 A2991 RMK A01 T00650060  RH  097%=      5-min Rain = 0
KLO1 221258Z 10004KT 07/06 A2991 RMK A01 T00650060  RH  097%=      5-min Rain = 0
KLO1 221259Z 10004KT 07/06 A2991 RMK A01 T00660060  RH  097%=      5-min Rain = 0
KLO1 221300Z 10004KT 07/06 A2991 RMK A01 T00660061  RH  097%=      5-min Rain = 0
KLO1 221301Z 11005KT 07/06 A2991 RMK A01 T00660061  RH  097%=      5-min Rain = 0
KLO1 221302Z 11006KT 07/06 A2991 RMK A01 T00660061  RH  097%=      5-min Rain = 0
KLO1 221303Z 12006KT 07/06 A2991 RMK A01 T00660061  RH  097%=      5-min Rain = 0
KLO1 221304Z 12006KT 07/06 A2991 RMK A01 T00670062  RH  097%=      5-min Rain = 0
KLO1 221305Z 12005KT 07/06 A2991 RMK A01 T00670062  RH  097%=      5-min Rain = 0
KLO1 221306Z 11005KT 07/06 A2991 RMK A01 T00670062  RH  097%=      5-min Rain = 0
KLO1 221307Z 11005KT 07/06 A2991 RMK A01 T00670062  RH  097%=      5-min Rain = 0
KLO1 221308Z 11004KT 07/06 A2991 RMK A01 T00670062  RH  097%=      5-min Rain = 0
KLO1 221309Z 11005KT 07/06 A2991 RMK A01 T00680062  RH  097%=      5-min Rain = 0
KLO1 221310Z 11003KT 07/06 A2991 RMK A01 T00680062  RH  097%=      5-min Rain = 0
KLO1 221311Z 11005KT 07/06 A2991 RMK A01 T00680063  RH  097%=      5-min Rain = 0
KLO1 221312Z 11005KT 07/06 A2991 RMK A01 T00680063  RH  097%=      5-min Rain = 0
KLO1 221313Z 10005KT 07/06 A2991 RMK A01 T00680063  RH  097%=      5-min Rain = 0
KLO1 221314Z 10005KT 07/06 A2991 RMK A01 T00690064  RH  097%=      5-min Rain = 0
KLO1 221315Z 12005KT 07/06 A2991 RMK A01 T00690064  RH  097%=      5-min Rain = 0
KLO1 221316Z 11005KT 07/06 A2991 RMK A01 T00690064  RH  097%=      5-min Rain = 0
KLO1 221317Z 10006KT 07/07 A2991 RMK A01 T00700065  RH  097%=      5-min Rain = 0
KLO1 221318Z 10005KT 07/06 A2991 RMK A01 T00700064  RH  097%=      5-min Rain = 0
KLO1 221319Z 10006KT 07/07 A2991 RMK A01 T00700065  RH  097%=      5-min Rain = 0
KLO1 221320Z 10005KT 07/07 A2991 RMK A01 T00700065  RH  097%=      5-min Rain = 0
KLO1 221321Z 10006KT 07/07 A2991 RMK A01 T00700065  RH  097%=      5-min Rain = 0
KLO1 221322Z 11006KT 07/07 A2991 RMK A01 T00710065  RH  097%=      5-min Rain = 0
KLO1 221323Z 11005KT 07/07 A2991 RMK A01 T00710066  RH  097%=      5-min Rain = 0
KLO1 221324Z 11006KT 07/07 A2991 RMK A01 T00710066  RH  097%=      5-min Rain = 0
KLO1 221325Z 11006KT 07/07 A2991 RMK A01 T00710066  RH  097%=      5-min Rain = 0
KLO1 221326Z 11007KT 07/07 A2991 RMK A01 T00720067  RH  097%=      5-min Rain = 0
KLO1 221327Z 11007KT 07/07 A2991 RMK A01 T00720067  RH  097%=      5-min Rain = 0
KLO1 221328Z 10008KT 07/07 A2991 RMK A01 T00720067  RH  097%=      5-min Rain = 0
KLO1 221329Z 10007KT 07/07 A2991 RMK A01 T00730067  RH  097%=      5-min Rain = 0
KLO1 221330Z 10007KT 07/07 A2991 RMK A01 T00730068  RH  097%=      5-min Rain = 0
KLO1 221331Z 10006KT 07/07 A2991 RMK A01 T00730068  RH  097%=      5-min Rain = 0
KLO1 221332Z 10006KT 07/07 A2991 RMK A01 T00730068  RH  096%=      5-min Rain = 0
KLO1 221333Z 10007KT 07/07 A2991 RMK A01 T00740068  RH  096%=      5-min Rain = 0
KLO1 221334Z 11005KT 07/07 A2991 RMK A01 T00740068  RH  096%=      5-min Rain = 0
KLO1 221335Z 11007KT 07/07 A2991 RMK A01 T00740068  RH  096%=      5-min Rain = 0
KLO1 221336Z 11006KT 07/07 A2991 RMK A01 T00740069  RH  096%=      5-min Rain = 0
KLO1 221337Z 11006KT 07/07 A2991 RMK A01 T00740069  RH  096%=      5-min Rain = 0
KLO1 221338Z 11008KT 07/07 A2991 RMK A01 T00740069  RH  096%=      5-min Rain = 0
KLO1 221339Z 10007KT 07/07 A2991 RMK A01 T00740069  RH  096%=      5-min Rain = 0
KLO1 221340Z 10007KT 08/07 A2991 RMK A01 T00750069  RH  096%=      5-min Rain = 0
KLO1 221341Z 09007KT 07/07 A2991 RMK A01 T00740069  RH  096%=      5-min Rain = 0
KLO1 221342Z 09006KT 07/07 A2991 RMK A01 T00740069  RH  096%=      5-min Rain = 0
KLO1 221343Z 09006KT 08/07 A2991 RMK A01 T00750069  RH  096%=      5-min Rain = 0
KLO1 221344Z 10006KT 08/07 A2992 RMK A01 T00750069  RH  096%=      5-min Rain = 0
KLO1 221345Z 10005KT 08/07 A2992 RMK A01 T00750069  RH  096%=      5-min Rain = 0
KLO1 221346Z 10005KT 08/07 A2992 RMK A01 T00750069  RH  096%=      5-min Rain = 0
KLO1 221347Z 10006KT 08/07 A2992 RMK A01 T00750069  RH  096%=      5-min Rain = 0
KLO1 221348Z 10005KT 08/07 A2992 RMK A01 T00750069  RH  096%=      5-min Rain = 0
KLO1 221349Z 10006KT 08/07 A2992 RMK A01 T00750069  RH  096%=      5-min Rain = 0
KLO1 221350Z 10006KT 08/07 A2992 RMK A01 T00750069  RH  096%=      5-min Rain = 0
KLO1 221351Z 10005KT 08/07 A2992 RMK A01 T00760070  RH  096%=      5-min Rain = 0
KLO1 221352Z 09005KT 08/07 A2992 RMK A01 T00760070  RH  096%=      5-min Rain = 0
KLO1 221353Z 09005KT 08/07 A2992 RMK A01 T00760069  RH  096%=      5-min Rain = 0
KLO1 221354Z 09004KT 08/07 A2992 RMK A01 T00750069  RH  096%=      5-min Rain = 0
KLO1 221355Z 08004KT 08/07 A2992 RMK A01 T00750069  RH  096%=      5-min Rain = 0
KLO1 221356Z 08005KT 08/07 A2992 RMK A01 T00760069  RH  096%=      5-min Rain = 0
KLO1 221357Z 08005KT 08/07 A2992 RMK A01 T00750069  RH  096%=      5-min Rain = 0
KLO1 221358Z 08004KT 08/07 A2992 RMK A01 T00750069  RH  096%=      5-min Rain = 0
KLO1 221359Z 09005KT 08/07 A2992 RMK A01 T00750069  RH  096%=      5-min Rain = 0
KLO1 221400Z 08005KT 08/07 A2992 RMK A01 T00760069  RH  096%=      5-min Rain = 0
KLO1 221401Z 09005KT 08/07 A2992 RMK A01 T00750069  RH  096%=      5-min Rain = 0
KLO1 221402Z 09006KT 08/07 A2992 RMK A01 T00760069  RH  096%=      5-min Rain = 0
KLO1 221403Z 09005KT 08/07 A2992 RMK A01 T00760069  RH  096%=      5-min Rain = 0
KLO1 221404Z 09005KT 08/07 A2992 RMK A01 T00750069  RH  096%=      5-min Rain = 0
KLO1 221405Z 09005KT 08/07 A2992 RMK A01 T00760069  RH  096%=      5-min Rain = 0
KLO1 221406Z 09006KT 08/07 A2992 RMK A01 T00750069  RH  096%=      5-min Rain = 0
KLO1 221407Z 09005KT 08/07 A2992 RMK A01 T00760069  RH  096%=      5-min Rain = 0
KLO1 221408Z 09005KT 08/07 A2992 RMK A01 T00760070  RH  096%=      5-min Rain = 0
KLO1 221409Z 09005KT 08/07 A2992 RMK A01 T00760070  RH  096%=      5-min Rain = 0
KLO1 221410Z 09005KT 08/07 A2993 RMK A01 T00760070  RH  096%=      5-min Rain = 0
KLO1 221411Z 09004KT 08/07 A2993 RMK A01 T00770070  RH  096%=      5-min Rain = 0
KLO1 221412Z 10005KT 08/07 A2993 RMK A01 T00760070  RH  096%=      5-min Rain = 0
KLO1 221413Z 10005KT 08/07 A2993 RMK A01 T00760070  RH  096%=      5-min Rain = 0
KLO1 221414Z 10005KT 08/07 A2993 RMK A01 T00760070  RH  096%=      5-min Rain = 0
KLO1 221415Z 10005KT 08/07 A2993 RMK A01 T00770070  RH  096%=      5-min Rain = 0
KLO1 221416Z 10005KT 08/07 A2993 RMK A01 T00770070  RH  096%=      5-min Rain = 0
KLO1 221417Z 10004KT 08/07 A2993 RMK A01 T00770070  RH  096%=      5-min Rain = 0
KLO1 221418Z 10005KT 08/07 A2993 RMK A01 T00780071  RH  096%=      5-min Rain = 0
KLO1 221419Z 10004KT 08/07 A2993 RMK A01 T00780071  RH  096%=      5-min Rain = 0
KLO1 221420Z 10005KT 08/07 A2993 RMK A01 T00780071  RH  095%=      5-min Rain = 0
KLO1 221421Z 10004KT 08/07 A2993 RMK A01 T00780071  RH  095%=      5-min Rain = 0
KLO1 221422Z 10004KT 08/07 A2993 RMK A01 T00780071  RH  095%=      5-min Rain = 0
KLO1 221423Z 11005KT 08/07 A2993 RMK A01 T00790072  RH  095%=      5-min Rain = 0
KLO1 221424Z 10005KT 08/07 A2993 RMK A01 T00790072  RH  095%=      5-min Rain = 0
KLO1 221425Z 10004KT 08/07 A2993 RMK A01 T00790072  RH  095%=      5-min Rain = 0
KLO1 221426Z 11005KT 08/07 A2993 RMK A01 T00800073  RH  095%=      5-min Rain = 0
KLO1 221427Z 11004KT 08/07 A2993 RMK A01 T00800073  RH  095%=      5-min Rain = 0
KLO1 221428Z 10004KT 08/07 A2994 RMK A01 T00800073  RH  095%=      5-min Rain = 0
KLO1 221429Z 11004KT 08/07 A2994 RMK A01 T00800073  RH  095%=      5-min Rain = 0
KLO1 221430Z 10004KT 08/07 A2994 RMK A01 T00810073  RH  095%=      5-min Rain = 0
KLO1 221431Z 10004KT 08/07 A2994 RMK A01 T00810073  RH  095%=      5-min Rain = 0
KLO1 221432Z 10004KT 08/07 A2994 RMK A01 T00810074  RH  095%=      5-min Rain = 0
KLO1 221433Z 10004KT 08/07 A2994 RMK A01 T00810074  RH  095%=      5-min Rain = 0
KLO1 221434Z 10004KT 08/07 A2994 RMK A01 T00820074  RH  095%=      5-min Rain = 0
KLO1 221435Z 10004KT 08/07 A2994 RMK A01 T00820074  RH  095%=      5-min Rain = 0
KLO1 221436Z 10004KT 08/08 A2994 RMK A01 T00830075  RH  095%=      5-min Rain = 0
KLO1 221437Z 11004KT 08/08 A2994 RMK A01 T00830075  RH  095%=      5-min Rain = 0
KLO1 221438Z 11004KT 08/08 A2994 RMK A01 T00830075  RH  095%=      5-min Rain = 0
KLO1 221439Z 11005KT 08/08 A2994 RMK A01 T00830075  RH  094%=      5-min Rain = 0
KLO1 221440Z 11005KT 08/08 A2994 RMK A01 T00840075  RH  094%=      5-min Rain = 0
KLO1 221441Z 11006KT 08/08 A2994 RMK A01 T00840076  RH  094%=      5-min Rain = 0
KLO1 221442Z 11005KT 08/08 A2994 RMK A01 T00840075  RH  094%=      5-min Rain = 0
KLO1 221443Z 12006KT 09/08 A2994 RMK A01 T00850076  RH  094%=      5-min Rain = 0
KLO1 221444Z 12006KT 09/08 A2994 RMK A01 T00850076  RH  094%=      5-min Rain = 0
KLO1 221445Z 12005KT 09/08 A2994 RMK A01 T00850076  RH  094%=      5-min Rain = 0
KLO1 221446Z 11005KT 09/08 A2994 RMK A01 T00860076  RH  094%=      5-min Rain = 0
KLO1 221447Z 11004KT 09/08 A2994 RMK A01 T00860077  RH  094%=      5-min Rain = 0
KLO1 221448Z 12006KT 09/08 A2994 RMK A01 T00880078  RH  094%=      5-min Rain = 0
KLO1 221449Z 11006KT 09/08 A2994 RMK A01 T00880078  RH  093%=      5-min Rain = 0
KLO1 221450Z 12006KT 09/08 A2994 RMK A01 T00880077  RH  093%=      5-min Rain = 0
KLO1 221451Z 12006KT 09/08 A2994 RMK A01 T00880077  RH  093%=      5-min Rain = 0
KLO1 221452Z 12006KT 09/08 A2995 RMK A01 T00890078  RH  093%=      5-min Rain = 0
KLO1 221453Z 12006KT 09/08 A2995 RMK A01 T00890078  RH  093%=      5-min Rain = 0
KLO1 221454Z 11005KT 09/08 A2995 RMK A01 T00900079  RH  093%=      5-min Rain = 0
KLO1 221455Z 12006KT 09/08 A2995 RMK A01 T00910079  RH  092%=      5-min Rain = 0
KLO1 221456Z 12005KT 09/08 A2995 RMK A01 T00910078  RH  092%=      5-min Rain = 0
KLO1 221457Z 11005KT 09/08 A2995 RMK A01 T00910079  RH  092%=      5-min Rain = 0
KLO1 221458Z 13005KT 09/08 A2995 RMK A01 T00920079  RH  092%=      5-min Rain = 0
KLO1 221459Z 12005KT 09/08 A2995 RMK A01 T00910079  RH  092%=      5-min Rain = 0
KLO1 221500Z 11006KT 09/08 A2995 RMK A01 T00920079  RH  092%=      5-min Rain = 0
KLO1 221501Z 12006KT 09/08 A2995 RMK A01 T00920079  RH  091%=      5-min Rain = 0
KLO1 221502Z 12006KT 09/08 A2995 RMK A01 T00920079  RH  091%=      5-min Rain = 0
KLO1 221503Z 12006KT 09/08 A2995 RMK A01 T00930079  RH  091%=      5-min Rain = 0
KLO1 221504Z 12006KT 09/08 A2995 RMK A01 T00920078  RH  091%=      5-min Rain = 0
KLO1 221505Z 11005KT 09/08 A2995 RMK A01 T00920078  RH  091%=      5-min Rain = 0
KLO1 221506Z 12006KT 09/08 A2995 RMK A01 T00920079  RH  091%=      5-min Rain = 0
KLO1 221507Z 12006KT 09/08 A2995 RMK A01 T00930079  RH  091%=      5-min Rain = 0
KLO1 221508Z 12007KT 09/08 A2995 RMK A01 T00930079  RH  091%=      5-min Rain = 0
KLO1 221509Z 13006KT 09/08 A2995 RMK A01 T00930079  RH  090%=      5-min Rain = 0
KLO1 221510Z 12007KT 09/08 A2995 RMK A01 T00930078  RH  090%=      5-min Rain = 0
KLO1 221511Z 12006KT 09/08 A2995 RMK A01 T00930078  RH  090%=      5-min Rain = 0
KLO1 221512Z 12006KT 09/08 A2995 RMK A01 T00930078  RH  090%=      5-min Rain = 0
KLO1 221513Z 13006KT 09/08 A2995 RMK A01 T00930078  RH  090%=      5-min Rain = 0
KLO1 221514Z 12006KT 09/08 A2995 RMK A01 T00940078  RH  090%=      5-min Rain = 0
KLO1 221515Z 12005KT 09/08 A2996 RMK A01 T00940079  RH  090%=      5-min Rain = 0
KLO1 221516Z 12005KT 09/08 A2995 RMK A01 T00940079  RH  090%=      5-min Rain = 0
KLO1 221517Z 12005KT 10/08 A2995 RMK A01 T00950079  RH  090%=      5-min Rain = 0
KLO1 221518Z 12005KT 10/08 A2995 RMK A01 T00950080  RH  090%=      5-min Rain = 0
KLO1 221519Z 13005KT 10/08 A2995 RMK A01 T00960080  RH  090%=      5-min Rain = 0
KLO1 221520Z 15005KT 10/08 A2995 RMK A01 T00970081  RH  090%=      5-min Rain = 0
KLO1 221521Z 14005KT 10/08 A2995 RMK A01 T00980081  RH  090%=      5-min Rain = 0
KLO1 221522Z 11006KT 10/08 A2995 RMK A01 T00980082  RH  089%=      5-min Rain = 0
KLO1 221523Z 12006KT 10/08 A2995 RMK A01 T00990082  RH  089%=      5-min Rain = 0
KLO1 221524Z 12006KT 10/08 A2995 RMK A01 T00990081  RH  089%=      5-min Rain = 0
KLO1 221525Z 12005KT 10/08 A2995 RMK A01 T01000081  RH  088%=      5-min Rain = 0
KLO1 221526Z 13005KT 10/08 A2995 RMK A01 T01000081  RH  088%=      5-min Rain = 0
KLO1 221527Z 13005KT 10/08 A2995 RMK A01 T01000081  RH  088%=      5-min Rain = 0
KLO1 221528Z 13004KT 10/08 A2995 RMK A01 T01000081  RH  088%=      5-min Rain = 0
KLO1 221529Z 13005KT 10/08 A2995 RMK A01 T01010082  RH  088%=      5-min Rain = 0
KLO1 221530Z 14005KT 10/08 A2995 RMK A01 T01010081  RH  087%=      5-min Rain = 0
KLO1 221531Z 13004KT 10/08 A2995 RMK A01 T01010081  RH  087%=      5-min Rain = 0
KLO1 221532Z 13006KT 10/08 A2995 RMK A01 T01020081  RH  087%=      5-min Rain = 0
KLO1 221533Z 12006KT 10/08 A2995 RMK A01 T01020082  RH  087%=      5-min Rain = 0
KLO1 221534Z 13006KT 10/08 A2995 RMK A01 T01020082  RH  087%=      5-min Rain = 0
KLO1 221535Z 13007KT 10/08 A2995 RMK A01 T01040083  RH  087%=      5-min Rain = 0
KLO1 221536Z 14005KT 10/08 A2995 RMK A01 T01040082  RH  086%=      5-min Rain = 0
KLO1 221537Z 14005KT 11/08 A2995 RMK A01 T01060084  RH  087%=      5-min Rain = 0
KLO1 221538Z 14005KT 11/09 A2995 RMK A01 T01070085  RH  086%=      5-min Rain = 0
KLO1 221539Z 13007KT 11/08 A2995 RMK A01 T01080084  RH  085%=      5-min Rain = 0
KLO1 221540Z 12008KT 11/08 A2995 RMK A01 T01080084  RH  085%=      5-min Rain = 0
KLO1 221541Z 13009KT 11/08 A2995 RMK A01 T01090084  RH  085%=      5-min Rain = 0
KLO1 221542Z 13007KT 11/08 A2995 RMK A01 T01080083  RH  084%=      5-min Rain = 0
KLO1 221543Z 13006KT 11/08 A2995 RMK A01 T01080083  RH  085%=      5-min Rain = 0
KLO1 221544Z 13007KT 11/08 A2995 RMK A01 T01080084  RH  085%=      5-min Rain = 0
KLO1 221545Z 12007KT 11/08 A2995 RMK A01 T01090084  RH  084%=      5-min Rain = 0
KLO1 221546Z 12007KT 11/08 A2995 RMK A01 T01090083  RH  084%=      5-min Rain = 0
KLO1 221547Z 12006KT 11/08 A2995 RMK A01 T01090084  RH  084%=      5-min Rain = 0
KLO1 221548Z 14006KT 11/09 A2995 RMK A01 T01100085  RH  085%=      5-min Rain = 0
KLO1 221549Z 15006KT 11/09 A2994 RMK A01 T01110085  RH  084%=      5-min Rain = 0
KLO1 221550Z 13006KT 11/09 A2994 RMK A01 T01120085  RH  083%=      5-min Rain = 0
KLO1 221551Z 12006KT 11/08 A2994 RMK A01 T01130084  RH  083%=      5-min Rain = 0
KLO1 221552Z 14007KT 11/08 A2994 RMK A01 T01120084  RH  083%=      5-min Rain = 0
KLO1 221553Z 13006KT 11/08 A2994 RMK A01 T01120084  RH  083%=      5-min Rain = 0
KLO1 221554Z 13008KT 11/09 A2994 RMK A01 T01140086  RH  083%=      5-min Rain = 0
KLO1 221555Z 15006KT 12/08 A2994 RMK A01 T01150083  RH  081%=      5-min Rain = 0
KLO1 221556Z 16006KT 12/08 A2994 RMK A01 T01150084  RH  081%=      5-min Rain = 0
KLO1 221557Z 14005KT 12/08 A2994 RMK A01 T01170084  RH  080%=      5-min Rain = 0
KLO1 221558Z 13006KT 12/09 A2994 RMK A01 T01170085  RH  080%=      5-min Rain = 0
KLO1 221559Z 14006KT 12/09 A2994 RMK A01 T01170085  RH  081%=      5-min Rain = 0
KLO1 221600Z 13008KT 12/08 A2994 RMK A01 T01170084  RH  080%=      5-min Rain = 0
KLO1 221601Z 14007KT 12/08 A2994 RMK A01 T01170083  RH  080%=      5-min Rain = 0
KLO1 221602Z 15006KT 12/08 A2994 RMK A01 T01170083  RH  080%=      5-min Rain = 0
KLO1 221603Z 16006KT 12/08 A2994 RMK A01 T01170083  RH  080%=      5-min Rain = 0
KLO1 221604Z 15007KT 12/08 A2994 RMK A01 T01180084  RH  080%=      5-min Rain = 0
KLO1 221605Z 17007KT 12/08 A2994 RMK A01 T01180083  RH  079%=      5-min Rain = 0
KLO1 221606Z 18010KT 12/08 A2994 RMK A01 T01190079  RH  076%=      5-min Rain = 0
KLO1 221607Z 17009KT 12/08 A2994 RMK A01 T01200077  RH  075%=      5-min Rain = 0
KLO1 221608Z 17010KT 12/08 A2994 RMK A01 T01210076  RH  074%=      5-min Rain = 0
KLO1 221609Z 18011KT 12/08 A2994 RMK A01 T01230078  RH  074%=      5-min Rain = 0
KLO1 221610Z 18011KT 12/08 A2994 RMK A01 T01240076  RH  073%=      5-min Rain = 0
KLO1 221611Z 18009KT 12/08 A2994 RMK A01 T01240075  RH  072%=      5-min Rain = 0
KLO1 221612Z 18010KT 12/08 A2994 RMK A01 T01240076  RH  072%=      5-min Rain = 0
KLO1 221613Z 17008KT 12/08 A2994 RMK A01 T01230076  RH  073%=      5-min Rain = 0
KLO1 221614Z 18008KT 12/08 A2994 RMK A01 T01230076  RH  073%=      5-min Rain = 0
KLO1 221615Z 19010KT 12/08 A2994 RMK A01 T01230076  RH  073%=      5-min Rain = 0
KLO1 221616Z 18008KT 12/08 A2994 RMK A01 T01230076  RH  073%=      5-min Rain = 0
KLO1 221617Z 19008KT 12/08 A2994 RMK A01 T01220076  RH  073%=      5-min Rain = 0
KLO1 221618Z 18008KT 12/08 A2993 RMK A01 T01220076  RH  073%=      5-min Rain = 0
KLO1 221619Z 17010KT 12/08 A2993 RMK A01 T01230077  RH  073%=      5-min Rain = 0
KLO1 221620Z 17011KT 13/08 A2993 RMK A01 T01260079  RH  073%=      5-min Rain = 0
KLO1 221621Z 17009KT 13/08 A2993 RMK A01 T01280079  RH  072%=      5-min Rain = 0
KLO1 221622Z 16011KT 13/08 A2993 RMK A01 T01300079  RH  071%=      5-min Rain = 0
KLO1 221623Z 17008KT 13/08 A2993 RMK A01 T01300076  RH  070%=      5-min Rain = 0
KLO1 221624Z 18008KT 13/08 A2993 RMK A01 T01290076  RH  070%=      5-min Rain = 0
KLO1 221625Z 17009KT 13/08 A2993 RMK A01 T01290078  RH  071%=      5-min Rain = 0
KLO1 221626Z 18009KT 13/08 A2993 RMK A01 T01310079  RH  071%=      5-min Rain = 0
KLO1 221627Z 17010KT 13/08 A2993 RMK A01 T01310077  RH  070%=      5-min Rain = 0
KLO1 221628Z 18008KT 13/08 A2993 RMK A01 T01310077  RH  070%=      5-min Rain = 0
KLO1 221629Z 17008KT 13/08 A2993 RMK A01 T01300077  RH  070%=      5-min Rain = 0
KLO1 221630Z 16009KT 13/08 A2993 RMK A01 T01330080  RH  070%=      5-min Rain = 0
KLO1 221631Z 16010KT 13/08 A2993 RMK A01 T01340078  RH  069%=      5-min Rain = 0
KLO1 221632Z 16010KT 13/08 A2993 RMK A01 T01330076  RH  068%=      5-min Rain = 0
KLO1 221633Z 17009KT 13/08 A2993 RMK A01 T01330077  RH  069%=      5-min Rain = 0
KLO1 221634Z 17009KT 13/08 A2993 RMK A01 T01320075  RH  068%=      5-min Rain = 0
KLO1 221635Z 18008KT 13/08 A2993 RMK A01 T01320075  RH  069%=      5-min Rain = 0
KLO1 221636Z 18007KT 13/08 A2993 RMK A01 T01310075  RH  069%=      5-min Rain = 0
KLO1 221637Z 19006KT 13/08 A2993 RMK A01 T01310075  RH  069%=      5-min Rain = 0
KLO1 221638Z 18006KT 13/08 A2993 RMK A01 T01310077  RH  069%=      5-min Rain = 0
KLO1 221639Z 16009KT 14/08 A2993 RMK A01 T01370082  RH  070%=      5-min Rain = 0
KLO1 221640Z 15011KT 14/08 A2993 RMK A01 T01390078  RH  067%=      5-min Rain = 0
KLO1 221641Z 16009KT 14/08 A2993 RMK A01 T01390078  RH  067%=      5-min Rain = 0
KLO1 221642Z 15009KT 14/08 A2993 RMK A01 T01380077  RH  067%=      5-min Rain = 0
KLO1 221643Z 16008KT 14/08 A2993 RMK A01 T01360076  RH  067%=      5-min Rain = 0
KLO1 221644Z 17008KT 14/08 A2993 RMK A01 T01350075  RH  067%=      5-min Rain = 0
KLO1 221645Z 17005KT 13/08 A2993 RMK A01 T01330075  RH  068%=      5-min Rain = 0
KLO1 221646Z 16004KT 13/08 A2993 RMK A01 T01320075  RH  069%=      5-min Rain = 0
KLO1 221647Z 16009KT 13/08 A2993 RMK A01 T01310076  RH  069%=      5-min Rain = 0
KLO1 221648Z 17008KT 13/08 A2993 RMK A01 T01340078  RH  069%=      5-min Rain = 0
KLO1 221649Z 16007KT 14/08 A2993 RMK A01 T01360076  RH  067%=      5-min Rain = 0
KLO1 221650Z 17007KT 14/08 A2993 RMK A01 T01360076  RH  067%=      5-min Rain = 0
KLO1 221651Z 18008KT 14/08 A2993 RMK A01 T01400080  RH  067%=      5-min Rain = 0
KLO1 221652Z 17006KT 14/08 A2993 RMK A01 T01410076  RH  065%=      5-min Rain = 0
KLO1 221653Z 17005KT 14/08 A2993 RMK A01 T01400076  RH  066%=      5-min Rain = 0
KLO1 221654Z 16007KT 14/08 A2993 RMK A01 T01390077  RH  066%=      5-min Rain = 0
KLO1 221655Z 16005KT 14/08 A2993 RMK A01 T01380075  RH  066%=      5-min Rain = 0
KLO1 221656Z 14007KT 14/08 A2993 RMK A01 T01370076  RH  067%=      5-min Rain = 0
KLO1 221657Z 16005KT 14/08 A2993 RMK A01 T01380078  RH  067%=      5-min Rain = 0
KLO1 221658Z 16010KT 14/08 A2993 RMK A01 T01410080  RH  067%=      5-min Rain = 0
KLO1 221659Z 16009KT 14/08 A2993 RMK A01 T01440078  RH  064%=      5-min Rain = 0
KLO1 221700Z 17007KT 14/08 A2993 RMK A01 T01440076  RH  064%=      5-min Rain = 0
KLO1 221701Z 17009KT 14/08 A2993 RMK A01 T01430076  RH  064%=      5-min Rain = 0
KLO1 221702Z 18008KT 14/08 A2993 RMK A01 T01440076  RH  063%=      5-min Rain = 0
KLO1 221703Z 16007KT 15/07 A2992 RMK A01 T01450074  RH  063%=      5-min Rain = 0
KLO1 221704Z 18005KT 14/07 A2992 RMK A01 T01440074  RH  063%=      5-min Rain = 0
KLO1 221705Z 17006KT 14/08 A2992 RMK A01 T01440077  RH  064%=      5-min Rain = 0
KLO1 221706Z 16010KT 15/08 A2992 RMK A01 T01450078  RH  064%=      5-min Rain = 0
KLO1 221707Z 17008KT 14/08 A2992 RMK A01 T01440076  RH  064%=      5-min Rain = 0
KLO1 221708Z 15007KT 14/08 A2992 RMK A01 T01430077  RH  065%=      5-min Rain = 0
KLO1 221709Z 15006KT 14/08 A2992 RMK A01 T01430076  RH  064%=      5-min Rain = 0
KLO1 221710Z 16005KT 14/08 A2992 RMK A01 T01430078  RH  065%=      5-min Rain = 0
KLO1 221711Z 16007KT 15/08 A2992 RMK A01 T01460079  RH  064%=      5-min Rain = 0
KLO1 221712Z 15007KT 15/08 A2992 RMK A01 T01470078  RH  063%=      5-min Rain = 0
KLO1 221713Z 16006KT 15/08 A2992 RMK A01 T01480077  RH  062%=      5-min Rain = 0
KLO1 221714Z 18008KT 15/08 A2992 RMK A01 T01470075  RH  062%=      5-min Rain = 0
KLO1 221715Z 17007KT 15/08 A2992 RMK A01 T01470075  RH  062%=      5-min Rain = 0
KLO1 221716Z 20007KT 15/08 A2992 RMK A01 T01450075  RH  063%=      5-min Rain = 0
KLO1 221717Z 21007KT 15/08 A2992 RMK A01 T01450077  RH  064%=      5-min Rain = 0
KLO1 221718Z 20007KT 15/08 A2992 RMK A01 T01460078  RH  064%=      5-min Rain = 0
KLO1 221719Z 18006KT 15/08 A2992 RMK A01 T01470076  RH  063%=      5-min Rain = 0
KLO1 221720Z 17006KT 15/08 A2992 RMK A01 T01460076  RH  063%=      5-min Rain = 0
KLO1 221721Z 15006KT 15/08 A2992 RMK A01 T01460077  RH  063%=      5-min Rain = 0
KLO1 221722Z 14007KT 15/08 A2992 RMK A01 T01480076  RH  062%=      5-min Rain = 0
KLO1 221723Z 15006KT 15/08 A2991 RMK A01 T01470076  RH  062%=      5-min Rain = 0
KLO1 221724Z 18008KT 15/08 A2991 RMK A01 T01490076  RH  062%=      5-min Rain = 0
KLO1 221725Z 17007KT 15/07 A2991 RMK A01 T01490074  RH  061%=      5-min Rain = 0
KLO1 221726Z 18008KT 15/08 A2991 RMK A01 T01510076  RH  061%=      5-min Rain = 0
KLO1 221727Z 18005KT 15/08 A2991 RMK A01 T01520076  RH  060%=      5-min Rain = 0
KLO1 221728Z 17006KT 15/08 A2991 RMK A01 T01520077  RH  061%=      5-min Rain = 0
KLO1 221729Z 14008KT 15/08 A2991 RMK A01 T01520077  RH  061%=      5-min Rain = 0
KLO1 221730Z 16010KT 15/08 A2991 RMK A01 T01540077  RH  060%=      5-min Rain = 0
KLO1 221731Z 16009KT 16/07 A2991 RMK A01 T01550074  RH  059%=      5-min Rain = 0
KLO1 221732Z 16010KT 15/07 A2991 RMK A01 T01540074  RH  059%=      5-min Rain = 0
KLO1 221733Z 18009KT 15/07 A2991 RMK A01 T01520074  RH  059%=      5-min Rain = 0
KLO1 221734Z 18007KT 15/07 A2991 RMK A01 T01520072  RH  059%=      5-min Rain = 0
KLO1 221735Z 16006KT 15/08 A2991 RMK A01 T01500075  RH  061%=      5-min Rain = 0
KLO1 221736Z 17008KT 15/08 A2991 RMK A01 T01540077  RH  060%=      5-min Rain = 0
KLO1 221737Z 16008KT 16/08 A299 RMK A01 T01560078  RH  060%=      5-min Rain = 0
KLO1 221738Z 17005KT 16/08 A299 RMK A01 T01580077  RH  058%=      5-min Rain = 0
KLO1 221739Z 19006KT 16/07 A299 RMK A01 T01580074  RH  058%=      5-min Rain = 0
KLO1 221740Z 16007KT 16/08 A299 RMK A01 T01570075  RH  058%=      5-min Rain = 0
KLO1 221741Z 15007KT 16/08 A299 RMK A01 T01570075  RH  058%=      5-min Rain = 0
KLO1 221742Z 14004KT 16/07 A299 RMK A01 T01560074  RH  058%=      5-min Rain = 0
KLO1 221743Z 16004KT 16/08 A299 RMK A01 T01550076  RH  059%=      5-min Rain = 0
KLO1 221744Z 15005KT 16/08 A299 RMK A01 T01580077  RH  059%=      5-min Rain = 0
KLO1 221745Z 17004KT 16/08 A299 RMK A01 T01580076  RH  058%=      5-min Rain = 0
KLO1 221746Z 19007KT 16/07 A299 RMK A01 T01580072  RH  056%=      5-min Rain = 0
KLO1 221747Z 19006KT 16/07 A299 RMK A01 T01590071  RH  056%=      5-min Rain = 0
KLO1 221748Z 18008KT 16/07 A299 RMK A01 T01590072  RH  056%=      5-min Rain = 0
KLO1 221749Z 16008KT 16/07 A299 RMK A01 T01610074  RH  057%=      5-min Rain = 0
KLO1 221750Z 15006KT 16/07 A299 RMK A01 T01610074  RH  056%=      5-min Rain = 0
KLO1 221751Z 16006KT 16/07 A299 RMK A01 T01600073  RH  056%=      5-min Rain = 0
KLO1 221752Z 12007KT 16/07 A299 RMK A01 T01600073  RH  056%=      5-min Rain = 0
KLO1 221753Z 14006KT 16/07 A299 RMK A01 T01590072  RH  056%=      5-min Rain = 0
KLO1 221754Z 16008KT 16/08 A299 RMK A01 T01600076  RH  057%=      5-min Rain = 0
KLO1 221755Z 16008KT 16/07 A299 RMK A01 T01640074  RH  055%=      5-min Rain = 0
KLO1 221756Z 15006KT 16/07 A299 RMK A01 T01630072  RH  055%=      5-min Rain = 0
KLO1 221757Z 19006KT 16/07 A299 RMK A01 T01620073  RH  055%=      5-min Rain = 0
KLO1 221758Z 18010KT 16/07 A299 RMK A01 T01610072  RH  056%=      5-min Rain = 0
KLO1 221759Z 18006KT 16/07 A299 RMK A01 T01630073  RH  055%=      5-min Rain = 0
KLO1 221800Z 18006KT 16/07 A299 RMK A01 T01630071  RH  055%=      5-min Rain = 0
KLO1 221801Z 20005KT 16/07 A299 RMK A01 T01630074  RH  055%=      5-min Rain = 0
KLO1 221802Z 19004KT 16/07 A299 RMK A01 T01640072  RH  054%=      5-min Rain = 0
KLO1 221803Z 18006KT 16/07 A299 RMK A01 T01630074  RH  055%=      5-min Rain = 0
KLO1 221804Z 15007KT 16/08 A299 RMK A01 T01640075  RH  056%=      5-min Rain = 0
KLO1 221805Z 16005KT 16/07 A2989 RMK A01 T01640073  RH  055%=      5-min Rain = 0
KLO1 221806Z 17005KT 16/07 A2989 RMK A01 T01620071  RH  055%=      5-min Rain = 0
KLO1 221807Z 18004KT 16/07 A2989 RMK A01 T01620073  RH  056%=      5-min Rain = 0
KLO1 221808Z 17006KT 16/07 A2989 RMK A01 T01620070  RH  054%=      5-min Rain = 0
KLO1 221809Z 21009KT 16/07 A2989 RMK A01 T01640071  RH  054%=      5-min Rain = 0
KLO1 221810Z 21006KT 16/07 A2989 RMK A01 T01630066  RH  053%=      5-min Rain = 0
KLO1 221811Z 21005KT 16/07 A2989 RMK A01 T01610067  RH  054%=      5-min Rain = 0
KLO1 221812Z 19007KT 16/07 A2989 RMK A01 T01610070  RH  055%=      5-min Rain = 0
KLO1 221813Z 21006KT 16/07 A2989 RMK A01 T01640071  RH  054%=      5-min Rain = 0
KLO1 221814Z 19007KT 17/07 A2989 RMK A01 T01650071  RH  054%=      5-min Rain = 0
KLO1 221815Z 18008KT 16/07 A2989 RMK A01 T01640069  RH  053%=      5-min Rain = 0
KLO1 221816Z 18006KT 16/07 A2989 RMK A01 T01630068  RH  053%=      5-min Rain = 0
KLO1 221817Z 17004KT 16/07 A2989 RMK A01 T01630069  RH  054%=      5-min Rain = 0
KLO1 221818Z 17002KT 16/07 A2989 RMK A01 T01640070  RH  054%=      5-min Rain = 0
KLO1 221819Z 18001KT 16/07 A2989 RMK A01 T01640069  RH  054%=      5-min Rain = 0
KLO1 221820Z 19002KT 17/07 A2989 RMK A01 T01650074  RH  055%=      5-min Rain = 0
KLO1 221821Z 16007KT 17/07 A2989 RMK A01 T01660070  RH  053%=      5-min Rain = 0
KLO1 221822Z 14006KT 17/06 A2989 RMK A01 T01680064  RH  050%=      5-min Rain = 0
KLO1 221823Z 15007KT 17/06 A2989 RMK A01 T01680064  RH  050%=      5-min Rain = 0
KLO1 221824Z 14006KT 17/07 A2989 RMK A01 T01690065  RH  050%=      5-min Rain = 0
KLO1 221825Z 14005KT 17/07 A2989 RMK A01 T01690067  RH  051%=      5-min Rain = 0
KLO1 221826Z 12005KT 17/07 A2989 RMK A01 T01690067  RH  051%=      5-min Rain = 0
KLO1 221827Z 14003KT 17/07 A2988 RMK A01 T01700068  RH  051%=      5-min Rain = 0
KLO1 221828Z 16004KT 17/07 A2988 RMK A01 T01700068  RH  051%=      5-min Rain = 0
KLO1 221829Z 18005KT 17/07 A2988 RMK A01 T01720070  RH  051%=      5-min Rain = 0
KLO1 221830Z 17005KT 17/07 A2988 RMK A01 T01720068  RH  051%=      5-min Rain = 0
KLO1 221831Z 16008KT 17/07 A2988 RMK A01 T01710069  RH  051%=      5-min Rain = 0
KLO1 221832Z 15007KT 17/07 A2988 RMK A01 T01710069  RH  051%=      5-min Rain = 0
KLO1 221833Z 14005KT 17/07 A2988 RMK A01 T01700069  RH  051%=      5-min Rain = 0
KLO1 221834Z 15005KT 17/07 A2988 RMK A01 T01700068  RH  051%=      5-min Rain = 0
KLO1 221835Z 14006KT 17/07 A2988 RMK A01 T01710069  RH  051%=      5-min Rain = 0
KLO1 221836Z 16006KT 17/07 A2988 RMK A01 T01720069  RH  050%=      5-min Rain = 0
KLO1 221837Z 16006KT 17/07 A2988 RMK A01 T01720069  RH  051%=      5-min Rain = 0
KLO1 221838Z 14005KT 17/07 A2988 RMK A01 T01730070  RH  051%=      5-min Rain = 0
KLO1 221839Z 13006KT 18/07 A2988 RMK A01 T01760071  RH  050%=      5-min Rain = 0
KLO1 221840Z 13004KT 18/07 A2988 RMK A01 T01770069  RH  049%=      5-min Rain = 0
KLO1 221841Z 12004KT 18/07 A2988 RMK A01 T01770072  RH  050%=      5-min Rain = 0
KLO1 221842Z 13007KT 18/07 A2987 RMK A01 T01780072  RH  050%=      5-min Rain = 0
KLO1 221843Z 16005G10KT 18/07 A2987 RMK A01 T01780069  RH  049%=      5-min Rain = 0
KLO1 221844Z 17009KT 18/07 A2987 RMK A01 T01780065  RH  047%=      5-min Rain = 0
KLO1 221845Z 17007KT 18/06 A2987 RMK A01 T01790059  RH  045%=      5-min Rain = 0
KLO1 221846Z 18007KT 18/06 A2987 RMK A01 T01790058  RH  045%=      5-min Rain = 0
KLO1 221847Z 16008KT 18/06 A2987 RMK A01 T01780059  RH  045%=      5-min Rain = 0
KLO1 221848Z 16008KT 18/06 A2987 RMK A01 T01780059  RH  046%=      5-min Rain = 0
KLO1 221849Z 14006KT 18/06 A2987 RMK A01 T01780062  RH  047%=      5-min Rain = 0
KLO1 221850Z 14004KT 18/06 A2987 RMK A01 T01770061  RH  046%=      5-min Rain = 0
KLO1 221851Z 15004KT 18/06 A2987 RMK A01 T01760063  RH  047%=      5-min Rain = 0
KLO1 221852Z 17009KT 18/06 A2987 RMK A01 T01780064  RH  047%=      5-min Rain = 0
KLO1 221853Z 16008KT 18/06 A2987 RMK A01 T01800062  RH  046%=      5-min Rain = 0
KLO1 221854Z 17006KT 18/06 A2987 RMK A01 T01790061  RH  046%=      5-min Rain = 0
KLO1 221855Z 16007KT 18/06 A2987 RMK A01 T01790062  RH  046%=      5-min Rain = 0
KLO1 221856Z 17005KT 18/06 A2987 RMK A01 T01790062  RH  046%=      5-min Rain = 0
KLO1 221857Z 18007KT 18/06 A2987 RMK A01 T01810061  RH  046%=      5-min Rain = 0
KLO1 221858Z 18009KT 18/06 A2987 RMK A01 T01810059  RH  045%=      5-min Rain = 0
KLO1 221859Z 18010KT 18/06 A2987 RMK A01 T01830060  RH  045%=      5-min Rain = 0
KLO1 221900Z 19010KT 18/06 A2987 RMK A01 T01820061  RH  045%=      5-min Rain = 0
KLO1 221901Z 17008KT 18/06 A2987 RMK A01 T01830062  RH  045%=      5-min Rain = 0
KLO1 221902Z 18009KT 18/06 A2987 RMK A01 T01830059  RH  044%=      5-min Rain = 0
KLO1 221903Z 17008KT 18/06 A2986 RMK A01 T01810057  RH  044%=      5-min Rain = 0
KLO1 221904Z 18006KT 18/06 A2986 RMK A01 T01800059  RH  045%=      5-min Rain = 0
KLO1 221905Z 18005KT 18/06 A2986 RMK A01 T01810059  RH  045%=      5-min Rain = 0
KLO1 221906Z 18007KT 18/06 A2986 RMK A01 T01830060  RH  045%=      5-min Rain = 0
KLO1 221907Z 17008KT 18/06 A2986 RMK A01 T01830059  RH  044%=      5-min Rain = 0
KLO1 221908Z 19007KT 18/06 A2986 RMK A01 T01840061  RH  044%=      5-min Rain = 0
KLO1 221909Z 16006KT 18/06 A2986 RMK A01 T01840057  RH  043%=      5-min Rain = 0
KLO1 221910Z 18004KT 18/06 A2986 RMK A01 T01830058  RH  044%=      5-min Rain = 0
KLO1 221911Z 16004KT 18/06 A2986 RMK A01 T01840060  RH  044%=      5-min Rain = 0
KLO1 221912Z 15004KT 19/06 A2985 RMK A01 T01870060  RH  043%=      5-min Rain = 0
KLO1 221913Z 15006KT 19/06 A2985 RMK A01 T01870061  RH  044%=      5-min Rain = 0
KLO1 221914Z 17011KT 19/06 A2985 RMK A01 T01890060  RH  043%=      5-min Rain = 0
KLO1 221915Z 16009KT 19/06 A2985 RMK A01 T01890057  RH  042%=      5-min Rain = 0
KLO1 221916Z 17007KT 19/06 A2985 RMK A01 T01870055  RH  042%=      5-min Rain = 0
KLO1 221917Z 17005KT 19/05 A2985 RMK A01 T01850053  RH  042%=      5-min Rain = 0
KLO1 221918Z 17003KT 18/06 A2985 RMK A01 T01840056  RH  043%=      5-min Rain = 0
KLO1 221919Z 18005KT 19/06 A2985 RMK A01 T01850057  RH  043%=      5-min Rain = 0
KLO1 221920Z 19006KT 19/06 A2985 RMK A01 T01870059  RH  043%=      5-min Rain = 0
KLO1 221921Z 18009KT 19/06 A2985 RMK A01 T01900060  RH  043%=      5-min Rain = 0
KLO1 221922Z 19010KT 19/06 A2984 RMK A01 T01900058  RH  042%=      5-min Rain = 0
KLO1 221923Z 19010KT 19/06 A2984 RMK A01 T01910058  RH  042%=      5-min Rain = 0
KLO1 221924Z 17008KT 19/06 A2984 RMK A01 T01910060  RH  042%=      5-min Rain = 0
KLO1 221925Z 19005KT 19/06 A2985 RMK A01 T01910058  RH  042%=      5-min Rain = 0
KLO1 221926Z 20006KT 19/06 A2984 RMK A01 T01900060  RH  043%=      5-min Rain = 0
KLO1 221927Z 19004KT 19/06 A2984 RMK A01 T01880061  RH  044%=      5-min Rain = 0
KLO1 221928Z 17009KT 19/06 A2984 RMK A01 T01880063  RH  044%=      5-min Rain = 0
KLO1 221929Z 18009KT 19/06 A2984 RMK A01 T01920062  RH  043%=      5-min Rain = 0
KLO1 221930Z 19008KT 19/06 A2984 RMK A01 T01920059  RH  042%=      5-min Rain = 0
KLO1 221931Z 18006KT 19/06 A2984 RMK A01 T01910056  RH  041%=      5-min Rain = 0
KLO1 221932Z 17005KT 19/06 A2984 RMK A01 T01880056  RH  042%=      5-min Rain = 0
KLO1 221933Z 15006KT 19/06 A2984 RMK A01 T01880059  RH  043%=      5-min Rain = 0
KLO1 221934Z 13006KT 19/06 A2984 RMK A01 T01900059  RH  042%=      5-min Rain = 0
KLO1 221935Z 15007KT 19/06 A2983 RMK A01 T01920059  RH  042%=      5-min Rain = 0
KLO1 221936Z 15007KT 19/06 A2983 RMK A01 T01930057  RH  041%=      5-min Rain = 0
KLO1 221937Z 15007KT 19/06 A2983 RMK A01 T01940058  RH  041%=      5-min Rain = 0
KLO1 221938Z 15006KT 19/06 A2983 RMK A01 T01940057  RH  041%=      5-min Rain = 0
KLO1 221939Z 18008KT 19/06 A2984 RMK A01 T01940058  RH  041%=      5-min Rain = 0
KLO1 221940Z 20008KT 20/05 A2983 RMK A01 T01950054  RH  040%=      5-min Rain = 0
KLO1 221941Z 19007KT 19/05 A2983 RMK A01 T01930053  RH  040%=      5-min Rain = 0
KLO1 221942Z 15007KT 19/05 A2983 RMK A01 T01930051  RH  039%=      5-min Rain = 0
KLO1 221943Z 15008KT 19/05 A2983 RMK A01 T01930050  RH  039%=      5-min Rain = 0
KLO1 221944Z 12005KT 19/05 A2983 RMK A01 T01940049  RH  039%=      5-min Rain = 0
KLO1 221945Z 15004KT 19/05 A2983 RMK A01 T01940050  RH  039%=      5-min Rain = 0
KLO1 221946Z 16008KT 20/05 A2983 RMK A01 T01950052  RH  039%=      5-min Rain = 0
KLO1 221947Z 16011KT 20/05 A2983 RMK A01 T01980047  RH  037%=      5-min Rain = 0
KLO1 221948Z 17009KT 20/04 A2983 RMK A01 T01990041  RH  035%=      5-min Rain = 0
KLO1 221949Z 18010KT 20/04 A2983 RMK A01 T01980041  RH  036%=      5-min Rain = 0
KLO1 221950Z 17006KT 20/04 A2982 RMK A01 T01980042  RH  036%=      5-min Rain = 0
KLO1 221951Z 15006KT 20/04 A2982 RMK A01 T01970042  RH  036%=      5-min Rain = 0
KLO1 221952Z 16009KT 20/04 A2982 RMK A01 T01970042  RH  036%=      5-min Rain = 0
KLO1 221953Z 18009KT 20/04 A2982 RMK A01 T01990043  RH  036%=      5-min Rain = 0
KLO1 221954Z 18009KT 20/04 A2982 RMK A01 T02000038  RH  034%=      5-min Rain = 0
KLO1 221955Z 16008KT 20/04 A2982 RMK A01 T02000039  RH  034%=      5-min Rain = 0
KLO1 221956Z 16009KT 20/04 A2982 RMK A01 T01990037  RH  034%=      5-min Rain = 0
KLO1 221957Z 15006KT 20/04 A2982 RMK A01 T01980035  RH  034%=      5-min Rain = 0
KLO1 221958Z 16006KT 20/04 A2982 RMK A01 T01970039  RH  035%=      5-min Rain = 0
KLO1 221959Z 17007KT 20/04 A2982 RMK A01 T01990037  RH  034%=      5-min Rain = 0
KLO1 222000Z 20007KT 20/03 A2982 RMK A01 T01990033  RH  033%=      5-min Rain = 0
KLO1 222001Z 18006KT 20/03 A2982 RMK A01 T01980030  RH  033%=      5-min Rain = 0
KLO1 222002Z 19005KT 20/04 A2981 RMK A01 T01960035  RH  034%=      5-min Rain = 0
KLO1 222003Z 18010KT 20/04 A2981 RMK A01 T01990041  RH  035%=      5-min Rain = 0
KLO1 222004Z 20009KT 20/03 A2981 RMK A01 T02010032  RH  033%=      5-min Rain = 0
KLO1 222005Z 20007KT 20/03 A2981 RMK A01 T02020032  RH  033%=      5-min Rain = 0
KLO1 222006Z 21009KT 20/04 A2981 RMK A01 T02020036  RH  033%=      5-min Rain = 0
KLO1 222007Z 21007KT 20/04 A2981 RMK A01 T02030038  RH  034%=      5-min Rain = 0
KLO1 222008Z 22007KT 20/04 A2981 RMK A01 T02030037  RH  034%=      5-min Rain = 0
KLO1 222009Z 23005KT 20/04 A2981 RMK A01 T02020040  RH  034%=      5-min Rain = 0
KLO1 222010Z 20003KT 20/04 A2981 RMK A01 T02020041  RH  035%=      5-min Rain = 0
KLO1 222011Z 19007KT 20/04 A2981 RMK A01 T02020039  RH  034%=      5-min Rain = 0
KLO1 222012Z 17008KT 20/04 A2981 RMK A01 T02030035  RH  033%=      5-min Rain = 0
KLO1 222013Z 16007KT 20/03 A2981 RMK A01 T02030032  RH  032%=      5-min Rain = 0
KLO1 222014Z 15007KT 20/03 A2981 RMK A01 T02020033  RH  033%=      5-min Rain = 0
KLO1 222015Z 13004KT 20/03 A2981 RMK A01 T02010033  RH  033%=      5-min Rain = 0
KLO1 222016Z 13004KT 20/03 A2981 RMK A01 T02010032  RH  033%=      5-min Rain = 0
KLO1 222017Z 17004KT 20/03 A2981 RMK A01 T02010032  RH  033%=      5-min Rain = 0
KLO1 222018Z 17007KT 20/03 A298 RMK A01 T02030032  RH  032%=      5-min Rain = 0
KLO1 222019Z 17012KT 21/03 A298 RMK A01 T02070028  RH  031%=      5-min Rain = 0
KLO1 222020Z 18011KT 21/02 A298 RMK A01 T02090022  RH  029%=      5-min Rain = 0
KLO1 222021Z 17010KT 21/02 A298 RMK A01 T02090020  RH  029%=      5-min Rain = 0
KLO1 222022Z 19008KT 21/02 A298 RMK A01 T02080020  RH  029%=      5-min Rain = 0
KLO1 222023Z 16009KT 21/03 A298 RMK A01 T02080025  RH  030%=      5-min Rain = 0
KLO1 222024Z 16010KT 21/02 A298 RMK A01 T02080023  RH  029%=      5-min Rain = 0
KLO1 222025Z 15010KT 21/02 A298 RMK A01 T02080024  RH  030%=      5-min Rain = 0
KLO1 222026Z 16011KT 21/02 A298 RMK A01 T02070023  RH  030%=      5-min Rain = 0
KLO1 222027Z 16008KT 21/02 A298 RMK A01 T02060023  RH  030%=      5-min Rain = 0
KLO1 222028Z 18007KT 21/03 A298 RMK A01 T02060025  RH  030%=      5-min Rain = 0
KLO1 222029Z 15007KT 21/02 A298 RMK A01 T02060024  RH  030%=      5-min Rain = 0
KLO1 222030Z 14006KT 21/03 A298 RMK A01 T02060026  RH  030%=      5-min Rain = 0
KLO1 222031Z 14007KT 21/03 A298 RMK A01 T02070030  RH  031%=      5-min Rain = 0
KLO1 222032Z 15007KT 21/03 A298 RMK A01 T02080028  RH  030%=      5-min Rain = 0
KLO1 222033Z 15005KT 21/03 A298 RMK A01 T02080026  RH  030%=      5-min Rain = 0
KLO1 222034Z 14005KT 21/03 A298 RMK A01 T02070028  RH  031%=      5-min Rain = 0
KLO1 222035Z 18005KT 21/03 A298 RMK A01 T02070027  RH  030%=      5-min Rain = 0
KLO1 222036Z 20006G11KT 21/03 A2979 RMK A01 T02070028  RH  031%=      5-min Rain = 0
KLO1 222037Z 19008KT 21/03 A2979 RMK A01 T02080025  RH  030%=      5-min Rain = 0
KLO1 222038Z 18008KT 21/02 A2979 RMK A01 T02090023  RH  029%=      5-min Rain = 0
KLO1 222039Z 18011KT 21/03 A2979 RMK A01 T02090025  RH  029%=      5-min Rain = 0
KLO1 222040Z 17010KT 21/03 A2979 RMK A01 T02110025  RH  029%=      5-min Rain = 0
KLO1 222041Z 16011KT 21/03 A2979 RMK A01 T02120025  RH  029%=      5-min Rain = 0
KLO1 222042Z 16011KT 21/02 A2979 RMK A01 T02130023  RH  028%=      5-min Rain = 0
KLO1 222043Z 16008KT 21/02 A2979 RMK A01 T02130023  RH  029%=      5-min Rain = 0
KLO1 222044Z 18007KT 21/02 A2979 RMK A01 T02130024  RH  029%=      5-min Rain = 0
KLO1 222045Z 19003KT 21/03 A2979 RMK A01 T02130025  RH  029%=      5-min Rain = 0
KLO1 222046Z 16005KT 21/02 A2979 RMK A01 T02110023  RH  029%=      5-min Rain = 0
KLO1 222047Z 16009KT 21/03 A2979 RMK A01 T02110025  RH  029%=      5-min Rain = 0
KLO1 222048Z 17010KT 21/03 A2979 RMK A01 T02130027  RH  029%=      5-min Rain = 0
KLO1 222049Z 18010KT 21/02 A2979 RMK A01 T02140022  RH  028%=      5-min Rain = 0
KLO1 222050Z 17008KT 21/02 A2979 RMK A01 T02130024  RH  029%=      5-min Rain = 0
KLO1 222051Z 16007KT 21/02 A2979 RMK A01 T02130023  RH  028%=      5-min Rain = 0
KLO1 222052Z 17011KT 21/02 A2979 RMK A01 T02130024  RH  029%=      5-min Rain = 0
KLO1 222053Z 17010KT 21/02 A2979 RMK A01 T02130024  RH  029%=      5-min Rain = 0
KLO1 222054Z 15005KT 21/02 A2979 RMK A01 T02120021  RH  028%=      5-min Rain = 0
KLO1 222055Z 16008KT 21/03 A2978 RMK A01 T02110025  RH  029%=      5-min Rain = 0
KLO1 222056Z 17009KT 21/02 A2978 RMK A01 T02110023  RH  029%=      5-min Rain = 0
KLO1 222057Z 15010G17KT 21/02 A2978 RMK A01 T02110024  RH  029%=      5-min Rain = 0
KLO1 222058Z 18014KT 21/02 A2978 RMK A01 T02140018  RH  027%=      5-min Rain = 0
KLO1 222059Z 18011KT 21/01 A2978 RMK A01 T02140010  RH  026%=      5-min Rain = 0
KLO1 222100Z 19013KT 21/02 A2978 RMK A01 T02140017  RH  027%=      5-min Rain = 0
KLO1 222101Z 17012KT 21/02 A2978 RMK A01 T02140019  RH  028%=      5-min Rain = 0
KLO1 222102Z 18009KT 21/02 A2978 RMK A01 T02140016  RH  027%=      5-min Rain = 0
KLO1 222103Z 18010KT 21/02 A2978 RMK A01 T02110015  RH  027%=      5-min Rain = 0
KLO1 222104Z 19006KT 21/01 A2978 RMK A01 T02100013  RH  027%=      5-min Rain = 0
KLO1 222105Z 16007G12KT 21/02 A2978 RMK A01 T02090017  RH  028%=      5-min Rain = 0
KLO1 222106Z 16011KT 21/02 A2978 RMK A01 T02110020  RH  028%=      5-min Rain = 0
KLO1 222107Z 16008KT 21/02 A2978 RMK A01 T02140020  RH  028%=      5-min Rain = 0
KLO1 222108Z 16008KT 22/02 A2978 RMK A01 T02160019  RH  027%=      5-min Rain = 0
KLO1 222109Z 15007KT 21/02 A2978 RMK A01 T02140018  RH  027%=      5-min Rain = 0
KLO1 222110Z 16008KT 21/02 A2978 RMK A01 T02130016  RH  027%=      5-min Rain = 0
KLO1 222111Z 15009KT 21/02 A2978 RMK A01 T02130015  RH  027%=      5-min Rain = 0
KLO1 222112Z 15010KT 22/01 A2978 RMK A01 T02160010  RH  026%=      5-min Rain = 0
KLO1 222113Z 15009KT 22/01 A2978 RMK A01 T02170009  RH  025%=      5-min Rain = 0
KLO1 222114Z 20010KT 22/01 A2978 RMK A01 T02180006  RH  025%=      5-min Rain = 0
KLO1 222115Z 19007KT 22/00 A2978 RMK A01 T02180003  RH  024%=      5-min Rain = 0
KLO1 222116Z 19007KT 22/01 A2978 RMK A01 T02170007  RH  025%=      5-min Rain = 0
KLO1 222117Z 16010KT 22/01 A2978 RMK A01 T02190012  RH  025%=      5-min Rain = 0
KLO1 222118Z 16013KT 22/01 A2978 RMK A01 T02210012  RH  025%=      5-min Rain = 0
KLO1 222119Z 16009KT 22/01 A2978 RMK A01 T02200010  RH  025%=      5-min Rain = 0
KLO1 222120Z 16011KT 22/01 A2978 RMK A01 T02190012  RH  025%=      5-min Rain = 0
KLO1 222121Z 18009KT 22/01 A2978 RMK A01 T02190012  RH  025%=      5-min Rain = 0
KLO1 222122Z 21011KT 22/01 A2978 RMK A01 T02200011  RH  025%=      5-min Rain = 0
KLO1 222123Z 21010KT 22/01 A2978 RMK A01 T02190012  RH  025%=      5-min Rain = 0
KLO1 222124Z 20010KT 22/01 A2978 RMK A01 T02190011  RH  025%=      5-min Rain = 0
KLO1 222125Z 20009KT 22/01 A2978 RMK A01 T02190011  RH  025%=      5-min Rain = 0
KLO1 222126Z 18009KT 22/01 A2978 RMK A01 T02200013  RH  026%=      5-min Rain = 0
KLO1 222127Z 18009KT 22/02 A2978 RMK A01 T02220015  RH  025%=      5-min Rain = 0
KLO1 222128Z 18012KT 22/01 A2978 RMK A01 T02220014  RH  025%=      5-min Rain = 0
KLO1 222129Z 18011KT 22/01 A2978 RMK A01 T02200012  RH  025%=      5-min Rain = 0
KLO1 222130Z 17009KT 22/01 A2978 RMK A01 T02180012  RH  026%=      5-min Rain = 0
KLO1 222131Z 17008KT 22/01 A2977 RMK A01 T02170013  RH  026%=      5-min Rain = 0
KLO1 222132Z 19009KT 22/02 A2977 RMK A01 T02180015  RH  026%=      5-min Rain = 0
KLO1 222133Z 21011KT 22/02 A2977 RMK A01 T02190016  RH  026%=      5-min Rain = 0
KLO1 222134Z 21009KT 22/01 A2977 RMK A01 T02200012  RH  025%=      5-min Rain = 0
KLO1 222135Z 20007KT 22/01 A2977 RMK A01 T02190010  RH  025%=      5-min Rain = 0
KLO1 222136Z 19009KT 22/01 A2977 RMK A01 T02190010  RH  025%=      5-min Rain = 0
KLO1 222137Z 18009KT 22/01 A2977 RMK A01 T02200005  RH  024%=      5-min Rain = 0
KLO1 222138Z 15010KT 22/01 A2977 RMK A01 T02200011  RH  025%=      5-min Rain = 0
KLO1 222139Z 17011KT 22/02 A2977 RMK A01 T02210018  RH  026%=      5-min Rain = 0
KLO1 222140Z 17010KT 22/02 A2977 RMK A01 T02230017  RH  026%=      5-min Rain = 0
KLO1 222141Z 15012KT 22/01 A2977 RMK A01 T02230014  RH  025%=      5-min Rain = 0
KLO1 222142Z 15011KT 22/01 A2977 RMK A01 T02220011  RH  025%=      5-min Rain = 0
KLO1 222143Z 16009KT 22/01 A2977 RMK A01 T02210012  RH  025%=      5-min Rain = 0
KLO1 222144Z 17011KT 22/01 A2977 RMK A01 T02210013  RH  025%=      5-min Rain = 0
KLO1 222145Z 17014KT 22/01 A2977 RMK A01 T02220013  RH  025%=      5-min Rain = 0
KLO1 222146Z 18013KT 22/01 A2977 RMK A01 T02210012  RH  025%=      5-min Rain = 0
KLO1 222147Z 18011KT 22/01 A2977 RMK A01 T02200011  RH  025%=      5-min Rain = 0
KLO1 222148Z 18009KT 22/01 A2977 RMK A01 T02190013  RH  025%=      5-min Rain = 0
KLO1 222149Z 16008KT 22/01 A2977 RMK A01 T02190014  RH  026%=      5-min Rain = 0
KLO1 222150Z 18011KT 22/02 A2977 RMK A01 T02190015  RH  026%=      5-min Rain = 0
KLO1 222151Z 17008KT 22/01 A2977 RMK A01 T02190014  RH  026%=      5-min Rain = 0
KLO1 222152Z 16006KT 22/01 A2977 RMK A01 T02190014  RH  026%=      5-min Rain = 0
KLO1 222153Z 15008KT 22/02 A2977 RMK A01 T02200016  RH  026%=      5-min Rain = 0
KLO1 222154Z 16009KT 22/01 A2977 RMK A01 T02210014  RH  025%=      5-min Rain = 0
KLO1 222155Z 18010G15KT 22/01 A2977 RMK A01 T02220014  RH  025%=      5-min Rain = 0
KLO1 222156Z 18010KT 22/01 A2977 RMK A01 T02220011  RH  025%=      5-min Rain = 0
KLO1 222157Z 19012KT 22/01 A2977 RMK A01 T02230011  RH  025%=      5-min Rain = 0
KLO1 222158Z 19013KT 22/01 A2977 RMK A01 T02240011  RH  025%=      5-min Rain = 0
KLO1 222159Z 19015KT 22/01 A2977 RMK A01 T02240010  RH  024%=      5-min Rain = 0
KLO1 222200Z 18011KT 22/01 A2977 RMK A01 T02240008  RH  024%=      5-min Rain = 0
KLO1 222201Z 18011KT 22/01 A2977 RMK A01 T02240008  RH  024%=      5-min Rain = 0
KLO1 222202Z 18010KT 22/01 A2977 RMK A01 T02240006  RH  024%=      5-min Rain = 0
KLO1 222203Z 18010KT 22/01 A2977 RMK A01 T02230008  RH  024%=      5-min Rain = 0
KLO1 222204Z 18010KT 22/01 A2977 RMK A01 T02230005  RH  024%=      5-min Rain = 0
KLO1 222205Z 18015KT 23/M00 A2977 RMK A01 T02251001  RH  022%=      5-min Rain = 0
KLO1 222206Z 17014KT 23/00 A2977 RMK A01 T022600-0  RH  022%=      5-min Rain = 0
KLO1 222207Z 18013KT 23/M01 A2977 RMK A01 T02271006  RH  021%=      5-min Rain = 0
KLO1 222208Z 18014KT 23/M01 A2977 RMK A01 T02261006  RH  021%=      5-min Rain = 0
KLO1 222209Z 19012KT 23/M01 A2977 RMK A01 T02261006  RH  021%=      5-min Rain = 0
KLO1 222210Z 18011KT 22/M01 A2976 RMK A01 T02241007  RH  021%=      5-min Rain = 0
KLO1 222211Z 19012G17KT 22/M01 A2976 RMK A01 T02241006  RH  022%=      5-min Rain = 0
KLO1 222212Z 19012KT 22/M01 A2976 RMK A01 T02231008  RH  021%=      5-min Rain = 0
KLO1 222213Z 19010KT 22/M01 A2976 RMK A01 T02231009  RH  021%=      5-min Rain = 0
KLO1 222214Z 18009KT 22/M01 A2976 RMK A01 T02231007  RH  022%=      5-min Rain = 0
KLO1 222215Z 17012KT 22/M01 A2976 RMK A01 T02241005  RH  022%=      5-min Rain = 0
KLO1 222216Z 17014KT 23/M01 A2976 RMK A01 T02261009  RH  021%=      5-min Rain = 0
KLO1 222217Z 18016KT 23/M01 A2976 RMK A01 T02251009  RH  021%=      5-min Rain = 0
KLO1 222218Z 17014KT 22/M01 A2976 RMK A01 T02231009  RH  021%=      5-min Rain = 0
KLO1 222219Z 16011KT 22/M01 A2976 RMK A01 T02241007  RH  022%=      5-min Rain = 0
KLO1 222220Z 19012KT 22/M01 A2976 RMK A01 T02241005  RH  022%=      5-min Rain = 0
KLO1 222221Z 17010KT 22/M01 A2976 RMK A01 T02241006  RH  022%=      5-min Rain = 0
KLO1 222222Z 18010KT 22/M01 A2976 RMK A01 T02221006  RH  022%=      5-min Rain = 0
KLO1 222223Z 19011KT 22/M00 A2976 RMK A01 T02221003  RH  022%=      5-min Rain = 0
KLO1 222224Z 20012KT 22/M00 A2976 RMK A01 T02241001  RH  022%=      5-min Rain = 0
KLO1 222225Z 19010KT 23/00 A2976 RMK A01 T022500-0  RH  022%=      5-min Rain = 0
KLO1 222226Z 20011KT 23/00 A2976 RMK A01 T02270001  RH  022%=      5-min Rain = 0
KLO1 222227Z 20012KT 23/00 A2976 RMK A01 T02260001  RH  022%=      5-min Rain = 0
KLO1 222228Z 19010KT 23/00 A2976 RMK A01 T02250000  RH  022%=      5-min Rain = 0
KLO1 222229Z 20011KT 22/00 A2976 RMK A01 T02240001  RH  023%=      5-min Rain = 0
KLO1 222230Z 21011KT 22/00 A2976 RMK A01 T02240001  RH  023%=      5-min Rain = 0
KLO1 222231Z 21011KT 22/00 A2976 RMK A01 T02230001  RH  023%=      5-min Rain = 0
KLO1 222232Z 20009KT 22/00 A2976 RMK A01 T02220002  RH  023%=      5-min Rain = 0
KLO1 222233Z 19009KT 22/00 A2976 RMK A01 T02230003  RH  023%=      5-min Rain = 0
KLO1 222234Z 18009KT 22/00 A2975 RMK A01 T02230002  RH  023%=      5-min Rain = 0
KLO1 222235Z 18009KT 22/00 A2975 RMK A01 T02230002  RH  023%=      5-min Rain = 0
KLO1 222236Z 17010KT 23/00 A2975 RMK A01 T02250004  RH  023%=      5-min Rain = 0
KLO1 222237Z 17010KT 23/00 A2975 RMK A01 T02250004  RH  023%=      5-min Rain = 0
KLO1 222238Z 17014KT 23/01 A2975 RMK A01 T02260006  RH  023%=      5-min Rain = 0
KLO1 222239Z 16014KT 23/00 A2975 RMK A01 T02260004  RH  023%=      5-min Rain = 0
KLO1 222240Z 17013KT 23/01 A2975 RMK A01 T02250006  RH  023%=      5-min Rain = 0
KLO1 222241Z 18013KT 22/01 A2975 RMK A01 T02240005  RH  023%=      5-min Rain = 0
KLO1 222242Z 18012KT 22/00 A2975 RMK A01 T02230004  RH  023%=      5-min Rain = 0
KLO1 222243Z 17010KT 22/01 A2975 RMK A01 T02230005  RH  024%=      5-min Rain = 0
KLO1 222244Z 17010KT 22/00 A2975 RMK A01 T02220004  RH  023%=      5-min Rain = 0
KLO1 222245Z 17009KT 22/00 A2975 RMK A01 T02210004  RH  024%=      5-min Rain = 0
KLO1 222246Z 17008KT 22/00 A2975 RMK A01 T02210004  RH  024%=      5-min Rain = 0
KLO1 222247Z 18008KT 22/00 A2975 RMK A01 T02210004  RH  024%=      5-min Rain = 0
KLO1 222248Z 17008KT 22/01 A2975 RMK A01 T02210006  RH  024%=      5-min Rain = 0
KLO1 222249Z 17010KT 22/01 A2975 RMK A01 T02220007  RH  024%=      5-min Rain = 0
KLO1 222250Z 16008KT 22/00 A2975 RMK A01 T02220003  RH  023%=      5-min Rain = 0
KLO1 222251Z 17008KT 22/01 A2975 RMK A01 T02210005  RH  024%=      5-min Rain = 0
KLO1 222252Z 17008KT 22/01 A2975 RMK A01 T02210005  RH  024%=      5-min Rain = 0
KLO1 222253Z 17008KT 22/01 A2975 RMK A01 T02220006  RH  024%=      5-min Rain = 0
KLO1 222254Z 17010KT 22/01 A2974 RMK A01 T02230007  RH  024%=      5-min Rain = 0
KLO1 222255Z 16011KT 22/01 A2974 RMK A01 T02230009  RH  024%=      5-min Rain = 0
KLO1 222256Z 17012KT 22/01 A2974 RMK A01 T02230014  RH  025%=      5-min Rain = 0
KLO1 222257Z 17009KT 22/01 A2974 RMK A01 T02230009  RH  024%=      5-min Rain = 0
KLO1 222258Z 16010KT 22/01 A2974 RMK A01 T02230009  RH  024%=      5-min Rain = 0
KLO1 222259Z 17008KT 22/01 A2974 RMK A01 T02230010  RH  024%=      5-min Rain = 0
KLO1 222300Z 17011KT 22/01 A2974 RMK A01 T02220012  RH  025%=      5-min Rain = 0
KLO1 222301Z 17012KT 22/01 A2974 RMK A01 T02230010  RH  024%=      5-min Rain = 0
KLO1 222302Z 18010KT 22/01 A2974 RMK A01 T02230006  RH  024%=      5-min Rain = 0
KLO1 222303Z 18007KT 22/00 A2974 RMK A01 T02230004  RH  023%=      5-min Rain = 0
KLO1 222304Z 17008KT 22/00 A2974 RMK A01 T02230004  RH  023%=      5-min Rain = 0
KLO1 222305Z 16008KT 22/00 A2974 RMK A01 T02230003  RH  023%=      5-min Rain = 0
KLO1 222306Z 16008KT 22/M00 A2974 RMK A01 T02231003  RH  022%=      5-min Rain = 0
KLO1 222307Z 16009KT 22/M01 A2974 RMK A01 T02231008  RH  021%=      5-min Rain = 0
KLO1 222308Z 16009KT 22/M01 A2974 RMK A01 T02221009  RH  021%=      5-min Rain = 0
KLO1 222309Z 16007KT 22/M01 A2974 RMK A01 T02221009  RH  021%=      5-min Rain = 0
KLO1 222310Z 16007KT 22/M01 A2974 RMK A01 T02231007  RH  022%=      5-min Rain = 0
KLO1 222311Z 16008KT 22/M00 A2974 RMK A01 T02231004  RH  022%=      5-min Rain = 0
KLO1 222312Z 16009KT 22/M00 A2974 RMK A01 T02231004  RH  022%=      5-min Rain = 0
KLO1 222313Z 16009KT 22/M01 A2974 RMK A01 T02231007  RH  022%=      5-min Rain = 0
KLO1 222314Z 17008KT 22/M01 A2973 RMK A01 T02231006  RH  022%=      5-min Rain = 0
KLO1 222315Z 17008KT 22/M01 A2973 RMK A01 T02231005  RH  022%=      5-min Rain = 0
KLO1 222316Z 17008KT 22/M01 A2973 RMK A01 T02221005  RH  022%=      5-min Rain = 0
KLO1 222317Z 16008KT 22/M00 A2973 RMK A01 T02221004  RH  022%=      5-min Rain = 0
KLO1 222318Z 14007KT 22/00 A2973 RMK A01 T02220004  RH  023%=      5-min Rain = 0
KLO1 222319Z 12008KT 22/01 A2973 RMK A01 T02220008  RH  024%=      5-min Rain = 0
KLO1 222320Z 12008KT 22/01 A2973 RMK A01 T02210007  RH  024%=      5-min Rain = 0
KLO1 222321Z 12005KT 22/01 A2973 RMK A01 T02200007  RH  024%=      5-min Rain = 0
KLO1 222322Z 13007KT 22/01 A2973 RMK A01 T02190007  RH  024%=      5-min Rain = 0
KLO1 222323Z 14007KT 22/01 A2973 RMK A01 T02190006  RH  024%=      5-min Rain = 0
KLO1 222324Z 14007KT 22/01 A2973 RMK A01 T02200006  RH  024%=      5-min Rain = 0
KLO1 222325Z 15008KT 22/01 A2973 RMK A01 T02200005  RH  024%=      5-min Rain = 0
KLO1 222326Z 15006KT 22/01 A2973 RMK A01 T02200005  RH  024%=      5-min Rain = 0
KLO1 222327Z 15005KT 22/01 A2973 RMK A01 T02200007  RH  024%=      5-min Rain = 0
KLO1 222328Z 15006KT 22/01 A2973 RMK A01 T02200008  RH  025%=      5-min Rain = 0
KLO1 222329Z 15006KT 22/01 A2973 RMK A01 T02200008  RH  024%=      5-min Rain = 0
KLO1 222330Z 14007KT 22/01 A2973 RMK A01 T02200006  RH  024%=      5-min Rain = 0
KLO1 222331Z 14007KT 22/01 A2973 RMK A01 T02190006  RH  024%=      5-min Rain = 0
KLO1 222332Z 15006KT 22/M00 A2973 RMK A01 T02201002  RH  023%=      5-min Rain = 0
KLO1 222333Z 15007KT 22/M00 A2973 RMK A01 T02201001  RH  023%=      5-min Rain = 0
KLO1 222334Z 15009KT 22/00 A2973 RMK A01 T02200001  RH  023%=      5-min Rain = 0
KLO1 222335Z 15008KT 22/00 A2973 RMK A01 T02200000  RH  023%=      5-min Rain = 0
KLO1 222336Z 15006KT 22/M00 A2973 RMK A01 T02191001  RH  023%=      5-min Rain = 0
KLO1 222337Z 15007KT 22/00 A2973 RMK A01 T02190002  RH  024%=      5-min Rain = 0
KLO1 222338Z 14007KT 22/01 A2973 RMK A01 T02200005  RH  024%=      5-min Rain = 0
KLO1 222339Z 15009KT 22/01 A2973 RMK A01 T02190005  RH  024%=      5-min Rain = 0
KLO1 222340Z 15010KT 22/00 A2973 RMK A01 T02190004  RH  024%=      5-min Rain = 0
KLO1 222341Z 15014KT 22/M00 A2972 RMK A01 T02201001  RH  023%=      5-min Rain = 0
KLO1 222342Z 15015KT 22/M00 A2972 RMK A01 T02191003  RH  023%=      5-min Rain = 0
KLO1 222343Z 15016KT 22/M01 A2972 RMK A01 T02191005  RH  022%=      5-min Rain = 0
KLO1 222344Z 15015KT 22/M01 A2973 RMK A01 T02191005  RH  022%=      5-min Rain = 0
KLO1 222345Z 16015KT 22/M00 A2973 RMK A01 T02181004  RH  023%=      5-min Rain = 0
KLO1 222346Z 15014KT 22/M01 A2973 RMK A01 T02181005  RH  023%=      5-min Rain = 0
KLO1 222347Z 15012KT 22/M00 A2973 RMK A01 T02181003  RH  023%=      5-min Rain = 0
KLO1 222348Z 14013KT 22/M00 A2973 RMK A01 T02181002  RH  023%=      5-min Rain = 0
KLO1 222349Z 15013KT 22/M00 A2973 RMK A01 T02171002  RH  023%=      5-min Rain = 0
KLO1 222350Z 14015KT 22/M00 A2973 RMK A01 T02171002  RH  023%=      5-min Rain = 0
KLO1 222351Z 15016KT 22/M00 A2973 RMK A01 T02181001  RH  023%=      5-min Rain = 0
KLO1 222352Z 15017KT 22/00 A2973 RMK A01 T02170002  RH  024%=      5-min Rain = 0
KLO1 222353Z 16014KT 22/01 A2973 RMK A01 T02170007  RH  025%=      5-min Rain = 0
KLO1 222354Z 16016KT 22/01 A2973 RMK A01 T02160013  RH  026%=      5-min Rain = 0
KLO1 222355Z 16016KT 21/02 A2973 RMK A01 T02140016  RH  027%=      5-min Rain = 0
KLO1 222356Z 15019KT 21/02 A2973 RMK A01 T02130018  RH  027%=      5-min Rain = 0
KLO1 222357Z 15019KT 21/02 A2973 RMK A01 T02120017  RH  027%=      5-min Rain = 0
KLO1 222358Z 15018KT 21/02 A2973 RMK A01 T02120018  RH  028%=      5-min Rain = 0
KLO1 222359Z 15018KT 21/02 A2973 RMK A01 T02120018  RH  028%=      5-min Rain = 0
KLO1 230000Z 15015KT 21/02 A2973 RMK A01 T02110019  RH  028%=      5-min Rain = 0
KLO1 230001Z 15017KT 21/02 A2973 RMK A01 T02100020  RH  028%=      5-min Rain = 0
KLO1 230002Z 15017KT 21/02 A2973 RMK A01 T02100020  RH  028%=      5-min Rain = 0
KLO1 230003Z 15016KT 21/02 A2973 RMK A01 T02100019  RH  028%=      5-min Rain = 0
KLO1 230004Z 15018KT 21/02 A2973 RMK A01 T02090018  RH  028%=      5-min Rain = 0
KLO1 230005Z 15015KT 21/02 A2973 RMK A01 T02090018  RH  028%=      5-min Rain = 0
KLO1 230006Z 15016KT 21/02 A2973 RMK A01 T02080018  RH  028%=      5-min Rain = 0
KLO1 230007Z 15018KT 21/02 A2973 RMK A01 T02080017  RH  028%=      5-min Rain = 0
KLO1 230008Z 16016KT 21/02 A2973 RMK A01 T02070017  RH  028%=      5-min Rain = 0
KLO1 230009Z 15016KT 21/02 A2973 RMK A01 T02070017  RH  028%=      5-min Rain = 0
KLO1 230010Z 15014KT 21/02 A2973 RMK A01 T02060018  RH  029%=      5-min Rain = 0
KLO1 230011Z 15015KT 21/02 A2973 RMK A01 T02050019  RH  029%=      5-min Rain = 0
KLO1 230012Z 15013KT 20/02 A2973 RMK A01 T02040019  RH  029%=      5-min Rain = 0
KLO1 230013Z 15015KT 20/02 A2973 RMK A01 T02040020  RH  029%=      5-min Rain = 0
KLO1 230014Z 15014KT 20/02 A2973 RMK A01 T02030020  RH  030%=      5-min Rain = 0
KLO1 230015Z 15013KT 20/02 A2973 RMK A01 T02030021  RH  030%=      5-min Rain = 0
KLO1 230016Z 15014KT 20/02 A2973 RMK A01 T02020021  RH  030%=      5-min Rain = 0
KLO1 230017Z 15013KT 20/02 A2973 RMK A01 T02020021  RH  030%=      5-min Rain = 0
KLO1 230018Z 15013KT 20/02 A2973 RMK A01 T02010021  RH  030%=      5-min Rain = 0
KLO1 230019Z 15014KT 20/02 A2973 RMK A01 T02000021  RH  030%=      5-min Rain = 0
KLO1 230020Z 15013KT 20/02 A2973 RMK A01 T02000020  RH  030%=      5-min Rain = 0
KLO1 230021Z 15012KT 20/02 A2973 RMK A01 T01990020  RH  030%=      5-min Rain = 0
KLO1 230022Z 15012KT 20/02 A2973 RMK A01 T01980020  RH  031%=      5-min Rain = 0
KLO1 230023Z 15011KT 20/02 A2973 RMK A01 T01970020  RH  031%=      5-min Rain = 0
KLO1 230024Z 15012KT 20/02 A2973 RMK A01 T01970020  RH  031%=      5-min Rain = 0
KLO1 230025Z 15013KT 20/02 A2973 RMK A01 T01960019  RH  031%=      5-min Rain = 0
KLO1 230026Z 14012KT 20/02 A2973 RMK A01 T01960019  RH  031%=      5-min Rain = 0
KLO1 230027Z 14012KT 20/02 A2973 RMK A01 T01960018  RH  031%=      5-min Rain = 0
KLO1 230028Z 14011KT 20/02 A2973 RMK A01 T01950018  RH  031%=      5-min Rain = 0
KLO1 230029Z 15012KT 19/02 A2973 RMK A01 T01940018  RH  031%=      5-min Rain = 0
KLO1 230030Z 15011KT 19/02 A2973 RMK A01 T01930018  RH  031%=      5-min Rain = 0
KLO1 230031Z 15013KT 19/02 A2973 RMK A01 T01920018  RH  031%=      5-min Rain = 0
KLO1 230032Z 14012KT 19/02 A2973 RMK A01 T01920018  RH  031%=      5-min Rain = 0
KLO1 230033Z 14012KT 19/02 A2973 RMK A01 T01910018  RH  031%=      5-min Rain = 0
KLO1 230034Z 14012KT 19/02 A2973 RMK A01 T01900018  RH  032%=      5-min Rain = 0
KLO1 230035Z 14012KT 19/02 A2973 RMK A01 T01900019  RH  032%=      5-min Rain = 0
KLO1 230036Z 14013KT 19/02 A2973 RMK A01 T01890021  RH  032%=      5-min Rain = 0
KLO1 230037Z 14012KT 19/02 A2973 RMK A01 T01890021  RH  033%=      5-min Rain = 0
KLO1 230038Z 14011KT 19/02 A2973 RMK A01 T01880021  RH  033%=      5-min Rain = 0
KLO1 230039Z 14011KT 19/02 A2973 RMK A01 T01870021  RH  033%=      5-min Rain = 0
KLO1 230040Z 13011KT 19/02 A2973 RMK A01 T01850022  RH  034%=      5-min Rain = 0
KLO1 230041Z 13012KT 19/02 A2973 RMK A01 T01850023  RH  034%=      5-min Rain = 0
KLO1 230042Z 13011KT 18/02 A2972 RMK A01 T01840024  RH  034%=      5-min Rain = 0
KLO1 230043Z 13013KT 18/02 A2972 RMK A01 T01830024  RH  035%=      5-min Rain = 0
KLO1 230044Z 13012KT 18/03 A2972 RMK A01 T01830026  RH  035%=      5-min Rain = 0
KLO1 230045Z 13012KT 18/03 A2972 RMK A01 T01820026  RH  035%=      5-min Rain = 0
KLO1 230046Z 13012KT 18/03 A2972 RMK A01 T01820026  RH  035%=      5-min Rain = 0
KLO1 230047Z 13012KT 18/03 A2972 RMK A01 T01820027  RH  035%=      5-min Rain = 0
KLO1 230048Z 13012KT 18/03 A2973 RMK A01 T01820027  RH  035%=      5-min Rain = 0
KLO1 230049Z 13011KT 18/03 A2973 RMK A01 T01810027  RH  036%=      5-min Rain = 0
KLO1 230050Z 13011KT 18/03 A2973 RMK A01 T01810027  RH  036%=      5-min Rain = 0
KLO1 230051Z 13011KT 18/03 A2973 RMK A01 T01800026  RH  036%=      5-min Rain = 0
KLO1 230052Z 12011KT 18/03 A2973 RMK A01 T01790027  RH  036%=      5-min Rain = 0
KLO1 230053Z 13012KT 18/03 A2973 RMK A01 T01790027  RH  036%=      5-min Rain = 0
KLO1 230054Z 12011KT 18/03 A2973 RMK A01 T01780027  RH  036%=      5-min Rain = 0
KLO1 230055Z 12011KT 18/03 A2973 RMK A01 T01780027  RH  037%=      5-min Rain = 0
KLO1 230056Z 12012KT 18/03 A2973 RMK A01 T01770028  RH  037%=      5-min Rain = 0
KLO1 230057Z 12011KT 18/03 A2973 RMK A01 T01770029  RH  037%=      5-min Rain = 0
KLO1 230058Z 12012KT 18/03 A2973 RMK A01 T01770029  RH  037%=      5-min Rain = 0
KLO1 230059Z 12011KT 18/03 A2973 RMK A01 T01770030  RH  037%=      5-min Rain = 0
KLO1 230100Z 12011KT 18/03 A2973 RMK A01 T01760030  RH  038%=      5-min Rain = 0
KLO1 230101Z 11010KT 18/03 A2973 RMK A01 T01750030  RH  038%=      5-min Rain = 0
KLO1 230102Z 11010KT 17/03 A2973 RMK A01 T01740030  RH  038%=      5-min Rain = 0
KLO1 230103Z 11010KT 17/03 A2973 RMK A01 T01730030  RH  038%=      5-min Rain = 0
KLO1 230104Z 10010KT 17/03 A2973 RMK A01 T01720030  RH  039%=      5-min Rain = 0
KLO1 230105Z 10010KT 17/03 A2973 RMK A01 T01710030  RH  039%=      5-min Rain = 0
KLO1 230106Z 09010KT 17/03 A2973 RMK A01 T01710030  RH  039%=      5-min Rain = 0
KLO1 230107Z 09010KT 17/03 A2973 RMK A01 T01690030  RH  039%=      5-min Rain = 0
KLO1 230108Z 09011KT 17/03 A2973 RMK A01 T01670034  RH  041%=      5-min Rain = 0
KLO1 230109Z 09011KT 17/04 A2972 RMK A01 T01660044  RH  045%=      5-min Rain = 0
KLO1 230110Z 09012KT 16/06 A2973 RMK A01 T01640057  RH  049%=      5-min Rain = 0
KLO1 230111Z 09012KT 16/06 A2973 RMK A01 T01640063  RH  051%=      5-min Rain = 0
KLO1 230112Z 09012KT 16/07 A2973 RMK A01 T01620066  RH  053%=      5-min Rain = 0
KLO1 230113Z 09012KT 16/07 A2973 RMK A01 T01610069  RH  054%=      5-min Rain = 0
KLO1 230114Z 09013KT 16/07 A2973 RMK A01 T01620072  RH  055%=      5-min Rain = 0
KLO1 230115Z 09012KT 16/07 A2973 RMK A01 T01610073  RH  056%=      5-min Rain = 0
KLO1 230116Z 09014KT 16/08 A2973 RMK A01 T01610075  RH  057%=      5-min Rain = 0
KLO1 230117Z 09014KT 16/08 A2973 RMK A01 T01610075  RH  057%=      5-min Rain = 0
KLO1 230118Z 10013KT 16/08 A2973 RMK A01 T01610076  RH  057%=      5-min Rain = 0
KLO1 230119Z 10015KT 16/08 A2973 RMK A01 T01600076  RH  057%=      5-min Rain = 0
KLO1 230120Z 10014KT 16/08 A2973 RMK A01 T01600077  RH  058%=      5-min Rain = 0
KLO1 230121Z 10013KT 16/08 A2973 RMK A01 T01600077  RH  058%=      5-min Rain = 0
KLO1 230122Z 09011KT 16/08 A2973 RMK A01 T01600077  RH  058%=      5-min Rain = 0
KLO1 230123Z 09014KT 16/08 A2973 RMK A01 T01590077  RH  058%=      5-min Rain = 0
KLO1 230124Z 09013KT 16/08 A2973 RMK A01 T01580078  RH  059%=      5-min Rain = 0
KLO1 230125Z 09014KT 16/08 A2973 RMK A01 T01580078  RH  059%=      5-min Rain = 0
KLO1 230126Z 09015KT 16/08 A2973 RMK A01 T01580079  RH  059%=      5-min Rain = 0
KLO1 230127Z 09014KT 16/08 A2973 RMK A01 T01580079  RH  059%=      5-min Rain = 0
KLO1 230128Z 09014KT 16/08 A2973 RMK A01 T01580079  RH  059%=      5-min Rain = 0
KLO1 230129Z 09015KT 16/08 A2972 RMK A01 T01580079  RH  059%=      5-min Rain = 0
KLO1 230130Z 09014KT 16/08 A2972 RMK A01 T01580079  RH  059%=      5-min Rain = 0
KLO1 230131Z 09016KT 16/08 A2972 RMK A01 T01570079  RH  060%=      5-min Rain = 0
KLO1 230132Z 09013KT 16/08 A2972 RMK A01 T01570079  RH  060%=      5-min Rain = 0
KLO1 230133Z 09015KT 16/08 A2972 RMK A01 T01570079  RH  060%=      5-min Rain = 0
KLO1 230134Z 09014KT 16/08 A2972 RMK A01 T01570079  RH  060%=      5-min Rain = 0
KLO1 230135Z 10015KT 16/08 A2972 RMK A01 T01560079  RH  060%=      5-min Rain = 0
KLO1 230136Z 09014KT 16/08 A2972 RMK A01 T01570079  RH  060%=      5-min Rain = 0
KLO1 230137Z 09015KT 16/08 A2973 RMK A01 T01560079  RH  060%=      5-min Rain = 0
KLO1 230138Z 09014KT 16/08 A2972 RMK A01 T01560079  RH  060%=      5-min Rain = 0
KLO1 230139Z 09014KT 16/08 A2972 RMK A01 T01560079  RH  060%=      5-min Rain = 0
KLO1 230140Z 09013KT 16/08 A2973 RMK A01 T01550078  RH  060%=      5-min Rain = 0
KLO1 230141Z 09013KT 15/08 A2973 RMK A01 T01540078  RH  060%=      5-min Rain = 0
KLO1 230142Z 09014KT 15/08 A2973 RMK A01 T01540078  RH  061%=      5-min Rain = 0
KLO1 230143Z 09013KT 15/08 A2973 RMK A01 T01530078  RH  061%=      5-min Rain = 0
KLO1 230144Z 09012KT 15/08 A2973 RMK A01 T01530078  RH  061%=      5-min Rain = 0
KLO1 230145Z 09013KT 15/08 A2973 RMK A01 T01530078  RH  061%=      5-min Rain = 0
KLO1 230146Z 09012KT 15/08 A2973 RMK A01 T01520078  RH  061%=      5-min Rain = 0
KLO1 230147Z 09012KT 15/08 A2973 RMK A01 T01520078  RH  061%=      5-min Rain = 0
KLO1 230148Z 09012KT 15/08 A2973 RMK A01 T01510078  RH  062%=      5-min Rain = 0
KLO1 230149Z 09011KT 15/08 A2973 RMK A01 T01510078  RH  062%=      5-min Rain = 0
KLO1 230150Z 09012KT 15/08 A2973 RMK A01 T01500077  RH  062%=      5-min Rain = 0
KLO1 230151Z 09012KT 15/08 A2973 RMK A01 T01500078  RH  062%=      5-min Rain = 0
KLO1 230152Z 09012KT 15/08 A2973 RMK A01 T01500078  RH  062%=      5-min Rain = 0
KLO1 230153Z 09012KT 15/08 A2973 RMK A01 T01490077  RH  062%=      5-min Rain = 0
KLO1 230154Z 09012KT 15/08 A2973 RMK A01 T01480077  RH  062%=      5-min Rain = 0
KLO1 230155Z 09010KT 15/08 A2973 RMK A01 T01480077  RH  063%=      5-min Rain = 0
KLO1 230156Z 09011KT 15/08 A2973 RMK A01 T01470077  RH  063%=      5-min Rain = 0
KLO1 230157Z 09010KT 15/08 A2973 RMK A01 T01470076  RH  063%=      5-min Rain = 0
KLO1 230158Z 09011KT 15/08 A2973 RMK A01 T01460076  RH  063%=      5-min Rain = 0
KLO1 230159Z 09011KT 15/08 A2973 RMK A01 T01450076  RH  063%=      5-min Rain = 0
KLO1 230200Z 09011KT 15/08 A2973 RMK A01 T01460076  RH  063%=      5-min Rain = 0
KLO1 230201Z 09011KT 15/08 A2973 RMK A01 T01450076  RH  063%=      5-min Rain = 0
KLO1 230202Z 09012KT 15/08 A2973 RMK A01 T01450076  RH  063%=      5-min Rain = 0
KLO1 230203Z 09012KT 15/08 A2973 RMK A01 T01450076  RH  063%=      5-min Rain = 0
KLO1 230204Z 09012KT 15/08 A2973 RMK A01 T01450075  RH  063%=      5-min Rain = 0
KLO1 230205Z 10013KT 15/08 A2973 RMK A01 T01450075  RH  063%=      5-min Rain = 0
KLO1 230206Z 10011KT 15/08 A2973 RMK A01 T01450075  RH  063%=      5-min Rain = 0
KLO1 230207Z 10012KT 15/07 A2973 RMK A01 T01450074  RH  063%=      5-min Rain = 0
KLO1 230208Z 09012KT 15/07 A2973 RMK A01 T01450074  RH  063%=      5-min Rain = 0
KLO1 230209Z 10013KT 15/07 A2973 RMK A01 T01450074  RH  063%=      5-min Rain = 0
KLO1 230210Z 10012KT 15/07 A2973 RMK A01 T01450074  RH  063%=      5-min Rain = 0
KLO1 230211Z 10011KT 15/08 A2973 RMK A01 T01450075  RH  063%=      5-min Rain = 0
KLO1 230212Z 10012KT 15/07 A2973 RMK A01 T01450074  RH  063%=      5-min Rain = 0
KLO1 230213Z 10012KT 15/07 A2973 RMK A01 T01450074  RH  062%=      5-min Rain = 0
KLO1 230214Z 10011KT 15/07 A2973 RMK A01 T01450074  RH  062%=      5-min Rain = 0
KLO1 230215Z 10013KT 15/07 A2973 RMK A01 T01450074  RH  062%=      5-min Rain = 0
KLO1 230216Z 10014KT 15/07 A2973 RMK A01 T01450074  RH  062%=      5-min Rain = 0
KLO1 230217Z 10013KT 15/07 A2973 RMK A01 T01460074  RH  062%=      5-min Rain = 0
KLO1 230218Z 10014KT 15/08 A2973 RMK A01 T01470075  RH  062%=      5-min Rain = 0
KLO1 230219Z 10013KT 15/08 A2972 RMK A01 T01480075  RH  062%=      5-min Rain = 0
KLO1 230220Z 10013KT 15/08 A2972 RMK A01 T01470075  RH  062%=      5-min Rain = 0
KLO1 230221Z 10013KT 15/08 A2973 RMK A01 T01470075  RH  062%=      5-min Rain = 0
KLO1 230222Z 10015KT 15/08 A2973 RMK A01 T01480075  RH  062%=      5-min Rain = 0
KLO1 230223Z 10014KT 15/08 A2973 RMK A01 T01480075  RH  062%=      5-min Rain = 0
KLO1 230224Z 10013KT 15/08 A2973 RMK A01 T01480076  RH  062%=      5-min Rain = 0
KLO1 230225Z 10013KT 15/08 A2973 RMK A01 T01480076  RH  062%=      5-min Rain = 0
KLO1 230226Z 10013KT 15/08 A2972 RMK A01 T01480076  RH  062%=      5-min Rain = 0
KLO1 230227Z 10013KT 15/08 A2972 RMK A01 T01480076  RH  062%=      5-min Rain = 0
KLO1 230228Z 11014KT 15/08 A2972 RMK A01 T01480077  RH  062%=      5-min Rain = 0
KLO1 230229Z 10014KT 15/08 A2972 RMK A01 T01480077  RH  063%=      5-min Rain = 0
KLO1 230230Z 10013KT 15/08 A2972 RMK A01 T01480078  RH  063%=      5-min Rain = 0
KLO1 230231Z 10013KT 15/08 A2972 RMK A01 T01480078  RH  063%=      5-min Rain = 0
KLO1 230232Z 10014KT 15/08 A2972 RMK A01 T01480078  RH  063%=      5-min Rain = 0
KLO1 230233Z 10014KT 15/08 A2972 RMK A01 T01480079  RH  063%=      5-min Rain = 0
KLO1 230234Z 11014KT 15/08 A2972 RMK A01 T01480079  RH  063%=      5-min Rain = 0
KLO1 230235Z 10016KT 15/08 A2972 RMK A01 T01480079  RH  063%=      5-min Rain = 0
KLO1 230236Z 11014KT 15/08 A2972 RMK A01 T01480079  RH  064%=      5-min Rain = 0
KLO1 230237Z 10013KT 15/08 A2972 RMK A01 T01480079  RH  063%=      5-min Rain = 0
KLO1 230238Z 11015KT 15/08 A2972 RMK A01 T01480080  RH  064%=      5-min Rain = 0
KLO1 230239Z 11013KT 15/08 A2972 RMK A01 T01470080  RH  064%=      5-min Rain = 0
KLO1 230240Z 11014KT 15/08 A2972 RMK A01 T01470080  RH  064%=      5-min Rain = 0
KLO1 230241Z 11013KT 15/08 A2972 RMK A01 T01470080  RH  064%=      5-min Rain = 0
KLO1 230242Z 11015KT 15/08 A2972 RMK A01 T01470081  RH  064%=      5-min Rain = 0
KLO1 230243Z 11015KT 15/08 A2972 RMK A01 T01470081  RH  064%=      5-min Rain = 0
KLO1 230244Z 11014KT 15/08 A2972 RMK A01 T01470081  RH  065%=      5-min Rain = 0
KLO1 230245Z 11013KT 15/08 A2972 RMK A01 T01460081  RH  065%=      5-min Rain = 0
KLO1 230246Z 11013KT 15/08 A2972 RMK A01 T01460081  RH  065%=      5-min Rain = 0
KLO1 230247Z 11012KT 15/08 A2972 RMK A01 T01450081  RH  065%=      5-min Rain = 0
KLO1 230248Z 11012KT 15/08 A2972 RMK A01 T01450081  RH  065%=      5-min Rain = 0
KLO1 230249Z 11011KT 14/08 A2972 RMK A01 T01440081  RH  066%=      5-min Rain = 0
KLO1 230250Z 11012KT 14/08 A2972 RMK A01 T01440081  RH  066%=      5-min Rain = 0
KLO1 230251Z 11013KT 14/08 A2972 RMK A01 T01430081  RH  066%=      5-min Rain = 0
KLO1 230252Z 11011KT 14/08 A2972 RMK A01 T01430081  RH  066%=      5-min Rain = 0
KLO1 230253Z 11011KT 14/08 A2972 RMK A01 T01430081  RH  066%=      5-min Rain = 0
KLO1 230254Z 11012KT 14/08 A2972 RMK A01 T01420081  RH  067%=      5-min Rain = 0
KLO1 230255Z 11013KT 14/08 A2972 RMK A01 T01410081  RH  067%=      5-min Rain = 0
KLO1 230256Z 11012KT 14/08 A2972 RMK A01 T01410082  RH  067%=      5-min Rain = 0
KLO1 230257Z 11011KT 14/08 A2972 RMK A01 T01410082  RH  067%=      5-min Rain = 0
KLO1 230258Z 11012KT 14/08 A2972 RMK A01 T01410081  RH  067%=      5-min Rain = 0
KLO1 230259Z 11013KT 14/08 A2972 RMK A01 T01400081  RH  068%=      5-min Rain = 0
KLO1 230300Z 12012KT 14/08 A2972 RMK A01 T01410082  RH  068%=      5-min Rain = 0
KLO1 230301Z 11014KT 14/08 A2972 RMK A01 T01400082  RH  068%=      5-min Rain = 0
KLO1 230302Z 11013KT 14/08 A2972 RMK A01 T01410082  RH  068%=      5-min Rain = 0
KLO1 230303Z 11014KT 14/08 A2972 RMK A01 T01410082  RH  068%=      5-min Rain = 0
KLO1 230304Z 12012KT 14/08 A2972 RMK A01 T01410082  RH  068%=      5-min Rain = 0
KLO1 230305Z 11012KT 14/08 A2972 RMK A01 T01400081  RH  068%=      5-min Rain = 0
KLO1 230306Z 11012KT 14/08 A2972 RMK A01 T01390081  RH  068%=      5-min Rain = 0
KLO1 230307Z 11015KT 14/08 A2972 RMK A01 T01390082  RH  068%=      5-min Rain = 0
KLO1 230308Z 11012KT 14/08 A2972 RMK A01 T01390082  RH  069%=      5-min Rain = 0
KLO1 230309Z 11013KT 14/08 A2971 RMK A01 T01390082  RH  068%=      5-min Rain = 0
KLO1 230310Z 11011KT 14/08 A2971 RMK A01 T01390082  RH  069%=      5-min Rain = 0
KLO1 230311Z 11014KT 14/08 A2971 RMK A01 T01380082  RH  069%=      5-min Rain = 0
KLO1 230312Z 10011KT 14/08 A2971 RMK A01 T01370082  RH  069%=      5-min Rain = 0
KLO1 230313Z 10011KT 14/08 A2971 RMK A01 T01360081  RH  070%=      5-min Rain = 0
KLO1 230314Z 10011KT 13/08 A2971 RMK A01 T01340082  RH  071%=      5-min Rain = 0
KLO1 230315Z 10010KT 13/08 A2971 RMK A01 T01320081  RH  071%=      5-min Rain = 0
KLO1 230316Z 10012KT 13/08 A2971 RMK A01 T01300082  RH  073%=      5-min Rain = 0
KLO1 230317Z 10012KT 13/08 A2971 RMK A01 T01290083  RH  074%=      5-min Rain = 0
KLO1 230318Z 10013KT 13/08 A2971 RMK A01 T01280084  RH  075%=      5-min Rain = 0
KLO1 230319Z 10013KT 13/09 A2971 RMK A01 T01270085  RH  076%=      5-min Rain = 0
KLO1 230320Z 10014KT 13/09 A2971 RMK A01 T01270086  RH  076%=      5-min Rain = 0
KLO1 230321Z 10013KT 13/09 A2971 RMK A01 T01270087  RH  077%=      5-min Rain = 0
KLO1 230322Z 10012KT 13/09 A2971 RMK A01 T01260088  RH  077%=      5-min Rain = 0
KLO1 230323Z 10012KT 13/09 A2971 RMK A01 T01260088  RH  078%=      5-min Rain = 0
KLO1 230324Z 10011KT 13/09 A2971 RMK A01 T01250088  RH  078%=      5-min Rain = 0
KLO1 230325Z 10012KT 12/09 A2971 RMK A01 T01240088  RH  079%=      5-min Rain = 0
KLO1 230326Z 10012KT 12/09 A2971 RMK A01 T01240089  RH  079%=      5-min Rain = 0
KLO1 230327Z 10013KT 12/09 A2971 RMK A01 T01230089  RH  079%=      5-min Rain = 0
KLO1 230328Z 10012KT 12/09 A2971 RMK A01 T01230089  RH  080%=      5-min Rain = 0
KLO1 230329Z 10011KT 12/09 A297 RMK A01 T01230089  RH  080%=      5-min Rain = 0
KLO1 230330Z 10012KT 12/09 A297 RMK A01 T01230089  RH  080%=      5-min Rain = 0
KLO1 230331Z 10011KT 12/09 A297 RMK A01 T01230089  RH  080%=      5-min Rain = 0
KLO1 230332Z 10011KT 12/09 A297 RMK A01 T01220088  RH  080%=      5-min Rain = 0
KLO1 230333Z 10011KT 12/09 A297 RMK A01 T01220088  RH  080%=      5-min Rain = 0
KLO1 230334Z 10011KT 12/09 A297 RMK A01 T01220088  RH  080%=      5-min Rain = 0
KLO1 230335Z 10011KT 12/09 A297 RMK A01 T01210088  RH  080%=      5-min Rain = 0
KLO1 230336Z 10011KT 12/09 A297 RMK A01 T01210088  RH  080%=      5-min Rain = 0
KLO1 230337Z 10011KT 12/09 A297 RMK A01 T01200088  RH  080%=      5-min Rain = 0
KLO1 230338Z 10011KT 12/09 A297 RMK A01 T01200088  RH  081%=      5-min Rain = 0
KLO1 230339Z 11011KT 12/09 A297 RMK A01 T01200088  RH  080%=      5-min Rain = 0
KLO1 230340Z 11011KT 12/09 A297 RMK A01 T01200088  RH  081%=      5-min Rain = 0
KLO1 230341Z 11011KT 12/09 A297 RMK A01 T01200088  RH  081%=      5-min Rain = 0
KLO1 230342Z 11011KT 12/09 A297 RMK A01 T01200088  RH  081%=      5-min Rain = 0
KLO1 230343Z 11011KT 12/09 A297 RMK A01 T01200088  RH  080%=      5-min Rain = 0
KLO1 230344Z 11011KT 12/09 A297 RMK A01 T01200088  RH  080%=      5-min Rain = 0
KLO1 230345Z 11012KT 12/09 A297 RMK A01 T01200088  RH  080%=      5-min Rain = 0
KLO1 230346Z 11012KT 12/09 A297 RMK A01 T01200087  RH  080%=      5-min Rain = 0
KLO1 230347Z 11012KT 12/09 A297 RMK A01 T01210088  RH  080%=      5-min Rain = 0
KLO1 230348Z 11011KT 12/09 A297 RMK A01 T01210087  RH  080%=      5-min Rain = 0
KLO1 230349Z 10012KT 12/09 A297 RMK A01 T01210088  RH  080%=      5-min Rain = 0
KLO1 230350Z 10012KT 12/09 A297 RMK A01 T01210088  RH  080%=      5-min Rain = 0
KLO1 230351Z 10012KT 12/09 A297 RMK A01 T01210088  RH  080%=      5-min Rain = 0
KLO1 230352Z 10012KT 12/09 A297 RMK A01 T01210088  RH  080%=      5-min Rain = 0
KLO1 230353Z 10011KT 12/09 A2969 RMK A01 T01200088  RH  081%=      5-min Rain = 0
KLO1 230354Z 10012KT 12/09 A2969 RMK A01 T01200088  RH  081%=      5-min Rain = 0
KLO1 230355Z 10012KT 12/09 A2969 RMK A01 T01190088  RH  081%=      5-min Rain = 0
KLO1 230356Z 10011KT 12/09 A2969 RMK A01 T01190088  RH  081%=      5-min Rain = 0
KLO1 230357Z 10012KT 12/09 A2969 RMK A01 T01180088  RH  082%=      5-min Rain = 0
KLO1 230358Z 11013KT 12/09 A2969 RMK A01 T01180088  RH  082%=      5-min Rain = 0
KLO1 230359Z 10012KT 12/09 A2969 RMK A01 T01180088  RH  082%=      5-min Rain = 0
KLO1 230400Z 10011KT 12/09 A2969 RMK A01 T01180088  RH  082%=      5-min Rain = 0
KLO1 230401Z 10012KT 12/09 A2969 RMK A01 T01170088  RH  082%=      5-min Rain = 0
KLO1 230402Z 10011KT 12/09 A2969 RMK A01 T01170088  RH  082%=      5-min Rain = 0
KLO1 230403Z 11011KT 12/09 A2969 RMK A01 T01160088  RH  082%=      5-min Rain = 0
KLO1 230404Z 11011KT 12/09 A2969 RMK A01 T01160088  RH  082%=      5-min Rain = 0
KLO1 230405Z 11010KT 12/09 A2969 RMK A01 T01160087  RH  082%=      5-min Rain = 0
KLO1 230406Z 12013KT 12/09 A2969 RMK A01 T01160086  RH  082%=      5-min Rain = 0
KLO1 230407Z 12011KT 12/09 A2969 RMK A01 T01190086  RH  080%=      5-min Rain = 0
KLO1 230408Z 12014KT 12/09 A2969 RMK A01 T01210086  RH  079%=      5-min Rain = 0
KLO1 230409Z 12013KT 13/09 A2969 RMK A01 T01250086  RH  077%=      5-min Rain = 0
KLO1 230410Z 12013KT 13/09 A2969 RMK A01 T01260085  RH  076%=      5-min Rain = 0
KLO1 230411Z 12013KT 13/09 A2969 RMK A01 T01260085  RH  076%=      5-min Rain = 0
KLO1 230412Z 12014KT 13/08 A2969 RMK A01 T01270084  RH  075%=      5-min Rain = 0
KLO1 230413Z 11012KT 13/08 A2969 RMK A01 T01270084  RH  075%=      5-min Rain = 0
KLO1 230414Z 12014KT 13/08 A2969 RMK A01 T01270084  RH  075%=      5-min Rain = 0
KLO1 230415Z 12013KT 13/08 A2969 RMK A01 T01280084  RH  075%=      5-min Rain = 0
KLO1 230416Z 12014KT 13/08 A2969 RMK A01 T01270084  RH  075%=      5-min Rain = 0
KLO1 230417Z 12014KT 13/08 A2969 RMK A01 T01280084  RH  075%=      5-min Rain = 0
KLO1 230418Z 12015KT 13/09 A2969 RMK A01 T01280085  RH  075%=      5-min Rain = 0
KLO1 230419Z 12015KT 13/09 A2969 RMK A01 T01280085  RH  075%=      5-min Rain = 0
KLO1 230420Z 12014KT 13/09 A2969 RMK A01 T01280085  RH  075%=      5-min Rain = 0
KLO1 230421Z 12016KT 13/08 A2969 RMK A01 T01280084  RH  075%=      5-min Rain = 0
KLO1 230422Z 12013KT 13/08 A2969 RMK A01 T01280084  RH  075%=      5-min Rain = 0
KLO1 230423Z 12015KT 13/08 A2969 RMK A01 T01270084  RH  075%=      5-min Rain = 0
KLO1 230424Z 12017KT 13/09 A2969 RMK A01 T01270085  RH  075%=      5-min Rain = 0
KLO1 230425Z 13017KT 13/09 A2969 RMK A01 T01280085  RH  075%=      5-min Rain = 0
KLO1 230426Z 13016KT 13/09 A2969 RMK A01 T01280085  RH  075%=      5-min Rain = 0
KLO1 230427Z 13016KT 13/09 A2969 RMK A01 T01280085  RH  075%=      5-min Rain = 0
KLO1 230428Z 13015KT 13/08 A2969 RMK A01 T01280084  RH  075%=      5-min Rain = 0
KLO1 230429Z 13015KT 13/08 A2969 RMK A01 T01270084  RH  075%=      5-min Rain = 0
KLO1 230430Z 13016KT 13/09 A297 RMK A01 T01270085  RH  075%=      5-min Rain = 0
KLO1 230431Z 13015KT 13/08 A297 RMK A01 T01270084  RH  075%=      5-min Rain = 0
KLO1 230432Z 13016KT 13/08 A297 RMK A01 T01270084  RH  075%=      5-min Rain = 0
KLO1 230433Z 13016KT 13/08 A297 RMK A01 T01270084  RH  075%=      5-min Rain = 0
KLO1 230434Z 13019KT 13/08 A2969 RMK A01 T01270084  RH  075%=      5-min Rain = 0
KLO1 230435Z 13016KT 13/09 A2969 RMK A01 T01280085  RH  075%=      5-min Rain = 0
KLO1 230436Z 13017KT 13/09 A2969 RMK A01 T01290085  RH  074%=      5-min Rain = 0
KLO1 230437Z 13018KT 13/09 A2969 RMK A01 T01290085  RH  074%=      5-min Rain = 0
KLO1 230438Z 13017KT 13/09 A2969 RMK A01 T01290085  RH  074%=      5-min Rain = 0
KLO1 230439Z 13017KT 13/08 A2969 RMK A01 T01290084  RH  074%=      5-min Rain = 0
KLO1 230440Z 13018KT 13/08 A2969 RMK A01 T01290084  RH  074%=      5-min Rain = 0
KLO1 230441Z 13016KT 13/08 A2969 RMK A01 T01290084  RH  074%=      5-min Rain = 0
KLO1 230442Z 13016KT 13/08 A2969 RMK A01 T01290084  RH  074%=      5-min Rain = 0
KLO1 230443Z 13018KT 13/08 A2969 RMK A01 T01280084  RH  075%=      5-min Rain = 0
KLO1 230444Z 12017KT 13/09 A2969 RMK A01 T01280085  RH  075%=      5-min Rain = 0
KLO1 230445Z 13015KT 13/08 A2969 RMK A01 T01280084  RH  075%=      5-min Rain = 0
KLO1 230446Z 13016KT 13/08 A2969 RMK A01 T01270084  RH  075%=      5-min Rain = 0
KLO1 230447Z 13018KT 13/08 A2969 RMK A01 T01270084  RH  075%=      5-min Rain = 0
KLO1 230448Z 13017KT 13/09 A2969 RMK A01 T01270085  RH  075%=      5-min Rain = 0
KLO1 230449Z 13015KT 13/09 A2969 RMK A01 T01280085  RH  075%=      5-min Rain = 0
KLO1 230450Z 14018KT 13/09 A297 RMK A01 T01270085  RH  075%=      5-min Rain = 0
KLO1 230451Z 13015KT 13/09 A297 RMK A01 T01270085  RH  075%=      5-min Rain = 0
KLO1 230452Z 14013KT 13/09 A297 RMK A01 T01270085  RH  075%=      5-min Rain = 0
KLO1 230453Z 14014KT 13/08 A297 RMK A01 T01260084  RH  076%=      5-min Rain = 0
KLO1 230454Z 14013KT 13/09 A297 RMK A01 T01260085  RH  076%=      5-min Rain = 0
KLO1 230455Z 14015KT 13/09 A297 RMK A01 T01260085  RH  076%=      5-min Rain = 0
KLO1 230456Z 14015KT 13/09 A297 RMK A01 T01250085  RH  076%=      5-min Rain = 0
KLO1 230457Z 14013KT 13/08 A297 RMK A01 T01250084  RH  076%=      5-min Rain = 0
KLO1 230458Z 13015KT 12/08 A2969 RMK A01 T01240084  RH  076%=      5-min Rain = 0
KLO1 230459Z 13017KT 12/09 A2969 RMK A01 T01240085  RH  077%=      5-min Rain = 0
KLO1 230500Z 13018KT 12/09 A2969 RMK A01 T01240085  RH  077%=      5-min Rain = 0
KLO1 230501Z 13018KT 13/09 A2969 RMK A01 T01250085  RH  077%=      5-min Rain = 0
KLO1 230502Z 13019KT 12/09 A2969 RMK A01 T01240085  RH  077%=      5-min Rain = 0
KLO1 230503Z 13017KT 13/09 A2969 RMK A01 T01250085  RH  077%=      5-min Rain = 0
KLO1 230504Z 14019KT 13/09 A2969 RMK A01 T01250086  RH  077%=      5-min Rain = 0
KLO1 230505Z 14020KT 13/09 A2969 RMK A01 T01250086  RH  077%=      5-min Rain = 0
KLO1 230506Z 14016KT 13/09 A297 RMK A01 T01250086  RH  077%=      5-min Rain = 0
KLO1 230507Z 14017KT 13/09 A297 RMK A01 T01250085  RH  077%=      5-min Rain = 0
KLO1 230508Z 14017KT 12/09 A2969 RMK A01 T01240085  RH  077%=      5-min Rain = 0
KLO1 230509Z 14019KT 12/09 A2969 RMK A01 T01240085  RH  077%=      5-min Rain = 0
KLO1 230510Z 14018KT 12/09 A2969 RMK A01 T01240085  RH  077%=      5-min Rain = 0
KLO1 230511Z 14018KT 12/09 A2969 RMK A01 T01240085  RH  077%=      5-min Rain = 0
KLO1 230512Z 14017KT 12/09 A2969 RMK A01 T01240085  RH  077%=      5-min Rain = 0
KLO1 230513Z 14019KT 12/09 A2969 RMK A01 T01230085  RH  078%=      5-min Rain = 0
KLO1 230514Z 14020KT 12/09 A2969 RMK A01 T01230085  RH  078%=      5-min Rain = 0
KLO1 230515Z 14019KT 12/09 A2969 RMK A01 T01230085  RH  077%=      5-min Rain = 0
KLO1 230516Z 14017KT 12/09 A2969 RMK A01 T01240085  RH  077%=      5-min Rain = 0
KLO1 230517Z 15019KT 12/09 A2969 RMK A01 T01230085  RH  077%=      5-min Rain = 0
KLO1 230518Z 15017KT 12/09 A2969 RMK A01 T01230085  RH  078%=      5-min Rain = 0
KLO1 230519Z 15021KT 12/09 A2969 RMK A01 T01230085  RH  078%=      5-min Rain = 0
KLO1 230520Z 15020KT 12/09 A2969 RMK A01 T01220086  RH  078%=      5-min Rain = 0
KLO1 230521Z 15020KT 12/09 A2969 RMK A01 T01220086  RH  078%=      5-min Rain = 0
KLO1 230522Z 15020KT 12/09 A2969 RMK A01 T01230086  RH  078%=      5-min Rain = 0
KLO1 230523Z 15018KT 12/09 A2969 RMK A01 T01230086  RH  078%=      5-min Rain = 0
KLO1 230524Z 15018KT 12/09 A2969 RMK A01 T01230086  RH  078%=      5-min Rain = 0
KLO1 230525Z 15017KT 12/09 A2969 RMK A01 T01220086  RH  078%=      5-min Rain = 0
KLO1 230526Z 15019G24KT 12/09 A2969 RMK A01 T01220086  RH  078%=      5-min Rain = 0
KLO1 230527Z 15017KT 12/09 A2969 RMK A01 T01220086  RH  078%=      5-min Rain = 0
KLO1 230528Z 15018KT 12/09 A2969 RMK A01 T01220086  RH  079%=      5-min Rain = 0
KLO1 230529Z 15017KT 12/09 A2969 RMK A01 T01220086  RH  079%=      5-min Rain = 0
KLO1 230530Z 15018KT 12/09 A2969 RMK A01 T01210086  RH  079%=      5-min Rain = 0
KLO1 230531Z 15018KT 12/09 A2969 RMK A01 T01210086  RH  079%=      5-min Rain = 0
KLO1 230532Z 15019KT 12/09 A2969 RMK A01 T01210086  RH  079%=      5-min Rain = 0
KLO1 230533Z 15020KT 12/09 A2969 RMK A01 T01200086  RH  080%=      5-min Rain = 0
KLO1 230534Z 15019KT 12/09 A2969 RMK A01 T01200086  RH  079%=      5-min Rain = 0
KLO1 230535Z 15017KT 12/09 A2969 RMK A01 T01200086  RH  080%=      5-min Rain = 0
KLO1 230536Z 15018KT 12/09 A297 RMK A01 T01200086  RH  080%=      5-min Rain = 0
KLO1 230537Z 15018KT 12/09 A2969 RMK A01 T01190086  RH  080%=      5-min Rain = 0
KLO1 230538Z 15018KT 12/09 A2969 RMK A01 T01180085  RH  080%=      5-min Rain = 0
KLO1 230539Z 15017KT 12/09 A2969 RMK A01 T01180086  RH  080%=      5-min Rain = 0
KLO1 230540Z 15017KT 12/09 A2969 RMK A01 T01180085  RH  080%=      5-min Rain = 0
KLO1 230541Z 15017KT 12/09 A2969 RMK A01 T01170085  RH  081%=      5-min Rain = 0
KLO1 230542Z 15018KT 12/09 A2969 RMK A01 T01170086  RH  081%=      5-min Rain = 0
KLO1 230543Z 16016KT 12/09 A2969 RMK A01 T01170085  RH  081%=      5-min Rain = 0
KLO1 230544Z 16018KT 12/09 A2969 RMK A01 T01170085  RH  081%=      5-min Rain = 0
KLO1 230545Z 16016KT 12/09 A2969 RMK A01 T01160085  RH  081%=      5-min Rain = 0
KLO1 230546Z 16017KT 12/09 A297 RMK A01 T01160085  RH  081%=      5-min Rain = 0
KLO1 230547Z 16017KT 12/09 A2969 RMK A01 T01160085  RH  081%=      5-min Rain = 0
KLO1 230548Z 16016KT 12/09 A297 RMK A01 T01160085  RH  081%=      5-min Rain = 0
KLO1 230549Z 16017KT 12/09 A297 RMK A01 T01160085  RH  081%=      5-min Rain = 0
KLO1 230550Z 16017KT 12/09 A297 RMK A01 T01160085  RH  081%=      5-min Rain = 0
KLO1 230551Z 16017KT 12/09 A2969 RMK A01 T01160085  RH  081%=      5-min Rain = 0
KLO1 230552Z 16018KT 12/09 A297 RMK A01 T01160085  RH  081%=      5-min Rain = 0
KLO1 230553Z 16016KT 12/08 A297 RMK A01 T01160084  RH  081%=      5-min Rain = 0
KLO1 230554Z 16018KT 12/08 A297 RMK A01 T01150084  RH  081%=      5-min Rain = 0
KLO1 230555Z 16017KT 12/08 A297 RMK A01 T01150084  RH  082%=      5-min Rain = 0
KLO1 230556Z 16019KT 12/08 A2969 RMK A01 T01150084  RH  081%=      5-min Rain = 0
KLO1 230557Z 16018KT 12/08 A2969 RMK A01 T01150084  RH  081%=      5-min Rain = 0
KLO1 230558Z 16017KT 12/08 A297 RMK A01 T01150084  RH  081%=      5-min Rain = 0
KLO1 230559Z 16018KT 12/08 A297 RMK A01 T01150084  RH  081%=      5-min Rain = 0

Page generated in 0.1325 seconds.